Wetterdaten: Dienstag, 20.07.2021
Datum Zeit Temp. Aussen Temp. o. S. Temp +5cm Feuchte Auss Luftdruck Regen Sonnenschein Regendauer Solar Windben Empfang
20.07.2021 00:00 17,4 C 16,7 C 14,5 C 76 % 1020,8 hPa 0,0 l/m 0 min 0 min 0 W/m 9,7 km/h (2 Bft) 100,00 %
20.07.2021 00:02 17,4 C 16,7 C 14,5 C 76 % 1020,8 hPa 0,0 l/m 0 min 0 min 0 W/m 12,9 km/h (3 Bft) 100,00 %
20.07.2021 00:04 17,4 C 16,7 C 14,5 C 76 % 1020,8 hPa 0,0 l/m 0 min 0 min 0 W/m 6,4 km/h (2 Bft) 100,00 %
20.07.2021 00:08 17,3 C 16,1 C 14,5 C 76 % 1020,8 hPa 0,0 l/m 0 min 0 min 0 W/m 9,7 km/h (2 Bft) 100,00 %
20.07.2021 00:10 17,3 C 16,1 C 14,5 C 76 % 1020,9 hPa 0,0 l/m 0 min 0 min 0 W/m 9,7 km/h (2 Bft) 93,62 %
20.07.2021 00:12 17,3 C 16,1 C 14,5 C 76 % 1020,8 hPa 0,0 l/m 0 min 0 min 0 W/m 6,4 km/h (2 Bft) 100,00 %
20.07.2021 00:14 17,3 C 16,1 C 14,5 C 76 % 1020,8 hPa 0,0 l/m 0 min 0 min 0 W/m 9,7 km/h (2 Bft) 100,00 %
20.07.2021 00:16 17,2 C 16,1 C 14,5 C 77 % 1020,9 hPa 0,0 l/m 0 min 0 min 0 W/m 9,7 km/h (2 Bft) 100,00 %
20.07.2021 00:18 17,2 C 16,1 C 14,5 C 76 % 1020,8 hPa 0,0 l/m 0 min 0 min 0 W/m 9,7 km/h (2 Bft) 100,00 %
20.07.2021 00:20 17,1 C 16,1 C 13,9 C 77 % 1020,8 hPa 0,0 l/m 0 min 0 min 0 W/m 12,9 km/h (3 Bft) 100,00 %
20.07.2021 00:22 17,1 C 16,1 C 13,9 C 76 % 1020,8 hPa 0,0 l/m 0 min 0 min 0 W/m 6,4 km/h (2 Bft) 100,00 %
20.07.2021 00:24 17,1 C 16,1 C 13,9 C 77 % 1020,8 hPa 0,0 l/m 0 min 0 min 0 W/m 12,9 km/h (3 Bft) 100,00 %
20.07.2021 00:26 17,0 C 16,1 C 13,9 C 77 % 1020,8 hPa 0,0 l/m 0 min 0 min 0 W/m 6,4 km/h (2 Bft) 100,00 %
20.07.2021 00:28 17,0 C 16,1 C 13,9 C 77 % 1020,8 hPa 0,0 l/m 0 min 0 min 0 W/m 9,7 km/h (2 Bft) 100,00 %
20.07.2021 00:30 17,0 C 16,1 C 13,9 C 77 % 1020,7 hPa 0,0 l/m 0 min 0 min 0 W/m 12,9 km/h (3 Bft) 100,00 %
20.07.2021 00:32 17,0 C 16,1 C 13,9 C 77 % 1020,7 hPa 0,0 l/m 0 min 0 min 0 W/m 3,2 km/h (1 Bft) 100,00 %
20.07.2021 00:34 17,0 C 16,1 C 13,9 C 77 % 1020,7 hPa 0,0 l/m 0 min 0 min 0 W/m 6,4 km/h (2 Bft) 100,00 %
20.07.2021 00:36 16,9 C 15,6 C 13,9 C 77 % 1020,8 hPa 0,0 l/m 0 min 0 min 0 W/m 6,4 km/h (2 Bft) 100,00 %
20.07.2021 00:38 16,9 C 15,6 C 13,9 C 77 % 1020,8 hPa 0,0 l/m 0 min 0 min 0 W/m 3,2 km/h (1 Bft) 100,00 %
20.07.2021 00:40 16,9 C 15,6 C 13,9 C 77 % 1020,8 hPa 0,0 l/m 0 min 0 min 0 W/m 3,2 km/h (1 Bft) 100,00 %
20.07.2021 00:42 16,9 C 15,6 C 13,9 C 77 % 1020,8 hPa 0,0 l/m 0 min 0 min 0 W/m 6,4 km/h (2 Bft) 100,00 %
20.07.2021 00:44 16,8 C 15,6 C 13,9 C 78 % 1020,8 hPa 0,0 l/m 0 min 0 min 0 W/m 6,4 km/h (2 Bft) 97,87 %
20.07.2021 00:46 16,8 C 15,6 C 13,9 C 78 % 1020,8 hPa 0,0 l/m 0 min 0 min 0 W/m 6,4 km/h (2 Bft) 97,87 %
20.07.2021 00:48 16,8 C 15,6 C 13,4 C 78 % 1020,8 hPa 0,0 l/m 0 min 0 min 0 W/m 6,4 km/h (2 Bft) 97,87 %
20.07.2021 00:50 16,7 C 15,6 C 13,4 C 78 % 1020,8 hPa 0,0 l/m 0 min 0 min 0 W/m 6,4 km/h (2 Bft) 95,74 %
20.07.2021 00:52 16,6 C 15,6 C 13,4 C 78 % 1020,8 hPa 0,0 l/m 0 min 0 min 0 W/m 12,9 km/h (3 Bft) 97,83 %
20.07.2021 00:54 16,6 C 15,6 C 13,4 C 78 % 1020,8 hPa 0,0 l/m 0 min 0 min 0 W/m 6,4 km/h (2 Bft) 95,74 %
20.07.2021 00:56 16,6 C 15,6 C 13,4 C 78 % 1020,8 hPa 0,0 l/m 0 min 0 min 0 W/m 9,7 km/h (2 Bft) 97,87 %
20.07.2021 00:58 16,5 C 15,6 C 13,4 C 78 % 1020,8 hPa 0,0 l/m 0 min 0 min 0 W/m 9,7 km/h (2 Bft) 97,87 %
20.07.2021 01:00 16,5 C 15,6 C 13,4 C 78 % 1020,8 hPa 0,0 l/m 0 min 0 min 0 W/m 9,7 km/h (2 Bft) 97,87 %
20.07.2021 01:02 16,5 C 15,6 C 13,4 C 78 % 1020,8 hPa 0,0 l/m 0 min 0 min 0 W/m 3,2 km/h (1 Bft) 97,87 %
20.07.2021 01:04 16,5 C 15,6 C 13,4 C 79 % 1020,8 hPa 0,0 l/m 0 min 0 min 0 W/m 6,4 km/h (2 Bft) 97,83 %
20.07.2021 01:06 16,4 C 15,6 C 13,4 C 79 % 1020,8 hPa 0,0 l/m 0 min 0 min 0 W/m 3,2 km/h (1 Bft) 97,87 %
20.07.2021 01:08 16,4 C 15,6 C 13,4 C 79 % 1020,8 hPa 0,0 l/m 0 min 0 min 0 W/m 6,4 km/h (2 Bft) 95,74 %
20.07.2021 01:10 16,4 C 15,6 C 13,4 C 79 % 1020,8 hPa 0,0 l/m 0 min 0 min 0 W/m 6,4 km/h (2 Bft) 97,87 %
20.07.2021 01:12 16,4 C 15,6 C 13,4 C 79 % 1020,8 hPa 0,0 l/m 0 min 0 min 0 W/m 3,2 km/h (1 Bft) 95,74 %
20.07.2021 01:14 16,3 C 15,6 C 13,4 C 79 % 1020,8 hPa 0,0 l/m 0 min 0 min 0 W/m 6,4 km/h (2 Bft) 97,87 %
20.07.2021 01:16 16,3 C 15,0 C 13,4 C 79 % 1020,8 hPa 0,0 l/m 0 min 0 min 0 W/m 6,4 km/h (2 Bft) 97,83 %
20.07.2021 01:18 16,3 C 15,0 C 13,4 C 79 % 1020,8 hPa 0,0 l/m 0 min 0 min 0 W/m 6,4 km/h (2 Bft) 95,74 %
20.07.2021 01:20 16,3 C 15,0 C 13,4 C 80 % 1020,8 hPa 0,0 l/m 0 min 0 min 0 W/m 3,2 km/h (1 Bft) 97,87 %
20.07.2021 01:22 16,2 C 15,0 C 13,4 C 80 % 1020,8 hPa 0,0 l/m 0 min 0 min 0 W/m 3,2 km/h (1 Bft) 95,74 %
20.07.2021 01:24 16,2 C 15,0 C 13,4 C 80 % 1020,7 hPa 0,0 l/m 0 min 0 min 0 W/m 6,4 km/h (2 Bft) 97,87 %
20.07.2021 01:26 16,1 C 15,0 C 13,4 C 80 % 1020,7 hPa 0,0 l/m 0 min 0 min 0 W/m 9,7 km/h (2 Bft) 95,74 %
20.07.2021 01:28 16,1 C 15,0 C 13,4 C 80 % 1020,7 hPa 0,0 l/m 0 min 0 min 0 W/m 9,7 km/h (2 Bft) 95,65 %
20.07.2021 01:30 16,1 C 15,0 C 13,4 C 80 % 1020,7 hPa 0,0 l/m 0 min 0 min 0 W/m 6,4 km/h (2 Bft) 93,62 %
20.07.2021 01:32 16,0 C 15,0 C 13,4 C 80 % 1020,8 hPa 0,0 l/m 0 min 0 min 0 W/m 6,4 km/h (2 Bft) 93,62 %
20.07.2021 01:34 16,0 C 15,0 C 13,4 C 80 % 1020,7 hPa 0,0 l/m 0 min 0 min 0 W/m 3,2 km/h (1 Bft) 95,74 %
20.07.2021 01:36 16,0 C 15,0 C 13,4 C 80 % 1020,7 hPa 0,0 l/m 0 min 0 min 0 W/m 6,4 km/h (2 Bft) 95,74 %
20.07.2021 01:38 16,0 C 15,0 C 13,4 C 80 % 1020,7 hPa 0,0 l/m 0 min 0 min 0 W/m 3,2 km/h (1 Bft) 97,87 %
20.07.2021 01:40 16,0 C 15,0 C 13,4 C 80 % 1020,7 hPa 0,0 l/m 0 min 0 min 0 W/m 6,4 km/h (2 Bft) 97,83 %
20.07.2021 01:42 15,9 C 15,0 C 13,4 C 81 % 1020,7 hPa 0,0 l/m 0 min 0 min 0 W/m 6,4 km/h (2 Bft) 95,74 %
20.07.2021 01:44 15,9 C 15,0 C 13,4 C 81 % 1020,8 hPa 0,0 l/m 0 min 0 min 0 W/m 9,7 km/h (2 Bft) 95,74 %
20.07.2021 01:46 15,9 C 15,0 C 13,4 C 81 % 1020,8 hPa 0,0 l/m 0 min 0 min 0 W/m 9,7 km/h (2 Bft) 97,87 %
20.07.2021 01:48 15,9 C 15,0 C 12,8 C 81 % 1020,7 hPa 0,0 l/m 0 min 0 min 0 W/m 3,2 km/h (1 Bft) 95,74 %
20.07.2021 01:50 15,9 C 15,0 C 12,8 C 81 % 1020,8 hPa 0,0 l/m 0 min 0 min 0 W/m 12,9 km/h (3 Bft) 95,74 %
20.07.2021 01:52 15,8 C 15,0 C 12,8 C 81 % 1020,8 hPa 0,0 l/m 0 min 0 min 0 W/m 6,4 km/h (2 Bft) 93,48 %
20.07.2021 01:54 15,8 C 15,0 C 12,8 C 81 % 1020,8 hPa 0,0 l/m 0 min 0 min 0 W/m 6,4 km/h (2 Bft) 95,74 %
20.07.2021 01:56 15,8 C 15,0 C 13,4 C 81 % 1020,7 hPa 0,0 l/m 0 min 0 min 0 W/m 6,4 km/h (2 Bft) 95,74 %
20.07.2021 01:58 15,8 C 15,0 C 13,4 C 81 % 1020,7 hPa 0,0 l/m 0 min 0 min 0 W/m 3,2 km/h (1 Bft) 95,74 %
20.07.2021 02:00 15,8 C 15,0 C 12,8 C 81 % 1020,7 hPa 0,0 l/m 0 min 0 min 0 W/m 9,7 km/h (2 Bft) 95,74 %
20.07.2021 02:02 15,8 C 14,4 C 12,8 C 82 % 1020,8 hPa 0,0 l/m 0 min 0 min 0 W/m 6,4 km/h (2 Bft) 93,62 %
20.07.2021 02:04 15,7 C 14,4 C 12,8 C 82 % 1020,8 hPa 0,0 l/m 0 min 0 min 0 W/m 9,7 km/h (2 Bft) 95,65 %
20.07.2021 02:06 15,7 C 14,4 C 12,8 C 82 % 1020,8 hPa 0,0 l/m 0 min 0 min 0 W/m 6,4 km/h (2 Bft) 95,74 %
20.07.2021 02:08 15,6 C 14,4 C 12,8 C 82 % 1020,8 hPa 0,0 l/m 0 min 0 min 0 W/m 6,4 km/h (2 Bft) 95,74 %
20.07.2021 02:10 15,6 C 14,4 C 12,8 C 82 % 1020,8 hPa 0,0 l/m 0 min 0 min 0 W/m 3,2 km/h (1 Bft) 97,87 %
20.07.2021 02:12 15,6 C 14,4 C 12,8 C 82 % 1020,8 hPa 0,0 l/m 0 min 0 min 0 W/m 6,4 km/h (2 Bft) 95,74 %
20.07.2021 02:14 15,6 C 14,4 C 12,8 C 82 % 1020,8 hPa 0,0 l/m 0 min 0 min 0 W/m 3,2 km/h (1 Bft) 97,87 %
20.07.2021 02:16 15,5 C 14,4 C 12,8 C 82 % 1020,8 hPa 0,0 l/m 0 min 0 min 0 W/m 3,2 km/h (1 Bft) 98,18 %
20.07.2021 02:18 15,5 C 14,4 C 12,8 C 83 % 1020,8 hPa 0,0 l/m 0 min 0 min 0 W/m 3,2 km/h (1 Bft) 97,96 %
20.07.2021 02:20 15,5 C 14,4 C 12,8 C 82 % 1020,8 hPa 0,0 l/m 0 min 0 min 0 W/m 0,0 km/h (0 Bft) 97,87 %
20.07.2021 02:22 15,5 C 14,4 C 12,8 C 83 % 1020,8 hPa 0,0 l/m 0 min 0 min 0 W/m 3,2 km/h (1 Bft) 95,83 %
20.07.2021 02:24 15,4 C 14,4 C 12,8 C 83 % 1020,8 hPa 0,0 l/m 0 min 0 min 0 W/m 3,2 km/h (1 Bft) 97,83 %
20.07.2021 02:26 15,4 C 14,4 C 12,8 C 83 % 1020,7 hPa 0,0 l/m 0 min 0 min 0 W/m 3,2 km/h (1 Bft) 97,87 %
20.07.2021 02:28 15,4 C 14,4 C 12,8 C 83 % 1020,7 hPa 0,0 l/m 0 min 0 min 0 W/m 3,2 km/h (1 Bft) 97,87 %
20.07.2021 02:30 15,4 C 14,4 C 12,8 C 83 % 1020,7 hPa 0,0 l/m 0 min 0 min 0 W/m 3,2 km/h (1 Bft) 97,87 %
20.07.2021 02:32 15,3 C 14,4 C 12,8 C 83 % 1020,7 hPa 0,0 l/m 0 min 0 min 0 W/m 9,7 km/h (2 Bft) 95,74 %
20.07.2021 02:34 15,3 C 14,4 C 12,8 C 83 % 1020,7 hPa 0,0 l/m 0 min 0 min 0 W/m 6,4 km/h (2 Bft) 97,87 %
20.07.2021 02:36 15,3 C 14,4 C 12,8 C 83 % 1020,7 hPa 0,0 l/m 0 min 0 min 0 W/m 6,4 km/h (2 Bft) 97,83 %
20.07.2021 02:38 15,3 C 14,4 C 12,8 C 83 % 1020,7 hPa 0,0 l/m 0 min 0 min 0 W/m 6,4 km/h (2 Bft) 97,87 %
20.07.2021 02:40 15,3 C 14,4 C 12,8 C 84 % 1020,8 hPa 0,0 l/m 0 min 0 min 0 W/m 3,2 km/h (1 Bft) 94,29 %
20.07.2021 02:42 15,2 C 14,4 C 12,8 C 84 % 1020,7 hPa 0,0 l/m 0 min 0 min 0 W/m 3,2 km/h (1 Bft) 98,31 %
20.07.2021 02:44 15,2 C 14,4 C 12,8 C 84 % 1020,7 hPa 0,0 l/m 0 min 0 min 0 W/m 3,2 km/h (1 Bft) 95,74 %
20.07.2021 02:46 15,2 C 14,4 C 12,3 C 84 % 1020,8 hPa 0,0 l/m 0 min 0 min 0 W/m 6,4 km/h (2 Bft) 94,29 %
20.07.2021 02:48 15,1 C 14,4 C 12,3 C 84 % 1020,8 hPa 0,0 l/m 0 min 0 min 0 W/m 3,2 km/h (1 Bft) 98,28 %
20.07.2021 02:50 15,1 C 13,9 C 12,3 C 84 % 1020,8 hPa 0,0 l/m 0 min 0 min 0 W/m 3,2 km/h (1 Bft) 97,22 %
20.07.2021 02:52 15,1 C 13,9 C 12,3 C 84 % 1020,8 hPa 0,0 l/m 0 min 0 min 0 W/m 3,2 km/h (1 Bft) 96,55 %
20.07.2021 02:54 15,1 C 13,9 C 12,3 C 84 % 1020,8 hPa 0,0 l/m 0 min 0 min 0 W/m 3,2 km/h (1 Bft) 95,74 %
20.07.2021 02:56 15,1 C 13,9 C 12,3 C 84 % 1020,7 hPa 0,0 l/m 0 min 0 min 0 W/m 3,2 km/h (1 Bft) 97,87 %
20.07.2021 02:58 15,0 C 13,9 C 12,3 C 84 % 1020,7 hPa 0,0 l/m 0 min 0 min 0 W/m 3,2 km/h (1 Bft) 95,74 %
20.07.2021 03:00 15,0 C 13,9 C 12,3 C 84 % 1020,6 hPa 0,0 l/m 0 min 0 min 0 W/m 3,2 km/h (1 Bft) 97,83 %
20.07.2021 03:02 15,0 C 13,9 C 12,3 C 84 % 1020,7 hPa 0,0 l/m 0 min 0 min 0 W/m 3,2 km/h (1 Bft) 97,87 %
20.07.2021 03:04 15,0 C 13,9 C 12,3 C 84 % 1020,7 hPa 0,0 l/m 0 min 0 min 0 W/m 3,2 km/h (1 Bft) 97,14 %
20.07.2021 03:06 14,9 C 13,9 C 12,3 C 85 % 1020,7 hPa 0,0 l/m 0 min 0 min 0 W/m 3,2 km/h (1 Bft) 98,31 %
20.07.2021 03:08 14,9 C 13,9 C 12,3 C 85 % 1020,7 hPa 0,0 l/m 0 min 0 min 0 W/m 0,0 km/h (0 Bft) 97,87 %
20.07.2021 03:10 14,8 C 13,9 C 12,3 C 85 % 1020,7 hPa 0,0 l/m 0 min 0 min 0 W/m 0,0 km/h (0 Bft) 97,87 %
20.07.2021 03:12 14,8 C 13,9 C 12,3 C 85 % 1020,7 hPa 0,0 l/m 0 min 0 min 0 W/m 0,0 km/h (0 Bft) 97,83 %
20.07.2021 03:14 14,7 C 13,9 C 11,7 C 85 % 1020,6 hPa 0,0 l/m 0 min 0 min 0 W/m 3,2 km/h (1 Bft) 97,22 %
20.07.2021 03:16 14,6 C 13,3 C 11,7 C 85 % 1020,7 hPa 0,0 l/m 0 min 0 min 0 W/m 0,0 km/h (0 Bft) 95,65 %
20.07.2021 03:18 14,6 C 13,3 C 11,7 C 85 % 1020,7 hPa 0,0 l/m 0 min 0 min 0 W/m 3,2 km/h (1 Bft) 96,61 %
20.07.2021 03:20 14,6 C 13,3 C 11,7 C 85 % 1020,7 hPa 0,0 l/m 0 min 0 min 0 W/m 3,2 km/h (1 Bft) 97,14 %
20.07.2021 03:22 14,5 C 13,3 C 11,7 C 85 % 1020,7 hPa 0,0 l/m 0 min 0 min 0 W/m 3,2 km/h (1 Bft) 98,31 %
20.07.2021 03:24 14,5 C 13,3 C 11,7 C 85 % 1020,7 hPa 0,0 l/m 0 min 0 min 0 W/m 0,0 km/h (0 Bft) 97,83 %
20.07.2021 03:26 14,5 C 13,3 C 11,7 C 85 % 1020,7 hPa 0,0 l/m 0 min 0 min 0 W/m 3,2 km/h (1 Bft) 97,87 %
20.07.2021 03:28 14,4 C 13,3 C 11,7 C 85 % 1020,7 hPa 0,0 l/m 0 min 0 min 0 W/m 0,0 km/h (0 Bft) 95,74 %
20.07.2021 03:30 14,4 C 12,8 C 11,7 C 85 % 1020,7 hPa 0,0 l/m 0 min 0 min 0 W/m 0,0 km/h (0 Bft) 97,14 %
20.07.2021 03:32 14,3 C 12,8 C 11,7 C 86 % 1020,7 hPa 0,0 l/m 0 min 0 min 0 W/m 0,0 km/h (0 Bft) 97,87 %
20.07.2021 03:34 14,2 C 12,8 C 11,7 C 86 % 1020,7 hPa 0,0 l/m 0 min 0 min 0 W/m 0,0 km/h (0 Bft) 97,87 %
20.07.2021 03:36 14,2 C 12,8 C 11,7 C 86 % 1020,7 hPa 0,0 l/m 0 min 0 min 0 W/m 0,0 km/h (0 Bft) 95,74 %
20.07.2021 03:38 14,2 C 12,8 C 11,7 C 86 % 1020,7 hPa 0,0 l/m 0 min 0 min 0 W/m 0,0 km/h (0 Bft) 100,00 %
20.07.2021 03:40 14,2 C 12,8 C 11,7 C 86 % 1020,7 hPa 0,0 l/m 0 min 0 min 0 W/m 0,0 km/h (0 Bft) 100,00 %
20.07.2021 03:42 14,2 C 12,8 C 11,7 C 86 % 1020,7 hPa 0,0 l/m 0 min 0 min 0 W/m 3,2 km/h (1 Bft) 100,00 %
20.07.2021 03:44 14,2 C 12,8 C 11,7 C 87 % 1020,7 hPa 0,0 l/m 0 min 0 min 0 W/m 0,0 km/h (0 Bft) 91,49 %
20.07.2021 03:46 14,1 C 12,8 C 11,7 C 87 % 1020,8 hPa 0,0 l/m 0 min 0 min 0 W/m 0,0 km/h (0 Bft) 100,00 %
20.07.2021 03:48 14,1 C 12,8 C 11,7 C 87 % 1020,8 hPa 0,0 l/m 0 min 0 min 0 W/m 0,0 km/h (0 Bft) 100,00 %
20.07.2021 03:50 14,0 C 12,8 C 11,7 C 87 % 1020,8 hPa 0,0 l/m 0 min 0 min 0 W/m 0,0 km/h (0 Bft) 97,87 %
20.07.2021 03:52 14,0 C 12,8 C 11,7 C 87 % 1020,8 hPa 0,0 l/m 0 min 0 min 0 W/m 3,2 km/h (1 Bft) 97,14 %
20.07.2021 03:54 14,0 C 12,8 C 11,7 C 87 % 1020,7 hPa 0,0 l/m 0 min 0 min 0 W/m 0,0 km/h (0 Bft) 97,87 %
20.07.2021 03:56 13,9 C 12,8 C 11,7 C 87 % 1020,8 hPa 0,0 l/m 0 min 0 min 0 W/m 0,0 km/h (0 Bft) 97,87 %
20.07.2021 03:58 13,9 C 12,8 C 11,1 C 87 % 1020,8 hPa 0,0 l/m 0 min 0 min 0 W/m 0,0 km/h (0 Bft) 97,87 %
20.07.2021 04:00 13,9 C 12,8 C 11,1 C 87 % 1020,8 hPa 0,0 l/m 0 min 0 min 0 W/m 0,0 km/h (0 Bft) 94,83 %
20.07.2021 04:02 13,9 C 12,8 C 11,1 C 87 % 1020,8 hPa 0,0 l/m 0 min 0 min 0 W/m 0,0 km/h (0 Bft) 100,00 %
20.07.2021 04:04 13,9 C 12,8 C 11,1 C 88 % 1020,8 hPa 0,0 l/m 0 min 0 min 0 W/m 0,0 km/h (0 Bft) 95,83 %
20.07.2021 04:06 13,8 C 12,8 C 11,1 C 88 % 1020,9 hPa 0,0 l/m 0 min 0 min 0 W/m 0,0 km/h (0 Bft) 97,37 %
20.07.2021 04:08 13,8 C 12,8 C 11,1 C 88 % 1020,8 hPa 0,0 l/m 0 min 0 min 0 W/m 0,0 km/h (0 Bft) 100,00 %
20.07.2021 04:10 13,8 C 12,8 C 11,1 C 88 % 1020,8 hPa 0,0 l/m 0 min 0 min 0 W/m 0,0 km/h (0 Bft) 97,14 %
20.07.2021 04:12 13,8 C 12,8 C 11,1 C 88 % 1020,8 hPa 0,0 l/m 0 min 0 min 0 W/m 0,0 km/h (0 Bft) 95,74 %
20.07.2021 04:14 13,8 C 12,2 C 11,1 C 88 % 1020,7 hPa 0,0 l/m 0 min 0 min 0 W/m 0,0 km/h (0 Bft) 95,65 %
20.07.2021 04:16 13,8 C 12,2 C 11,1 C 88 % 1020,7 hPa 0,0 l/m 0 min 0 min 0 W/m 0,0 km/h (0 Bft) 95,74 %
20.07.2021 04:18 13,8 C 12,2 C 11,1 C 88 % 1020,7 hPa 0,0 l/m 0 min 0 min 0 W/m 3,2 km/h (1 Bft) 91,49 %
20.07.2021 04:20 13,7 C 12,2 C 11,1 C 88 % 1020,8 hPa 0,0 l/m 0 min 0 min 0 W/m 3,2 km/h (1 Bft) 94,92 %
20.07.2021 04:22 13,6 C 12,2 C 11,1 C 88 % 1020,7 hPa 0,0 l/m 0 min 0 min 0 W/m 3,2 km/h (1 Bft) 95,65 %
20.07.2021 04:24 13,6 C 12,2 C 11,1 C 88 % 1020,8 hPa 0,0 l/m 0 min 0 min 0 W/m 0,0 km/h (0 Bft) 97,22 %
20.07.2021 04:26 13,6 C 12,2 C 11,1 C 88 % 1020,7 hPa 0,0 l/m 0 min 0 min 0 W/m 0,0 km/h (0 Bft) 97,83 %
20.07.2021 04:28 13,6 C 12,2 C 11,1 C 88 % 1020,7 hPa 0,0 l/m 0 min 0 min 0 W/m 0,0 km/h (0 Bft) 100,00 %
20.07.2021 04:30 13,5 C 12,2 C 11,1 C 88 % 1020,7 hPa 0,0 l/m 0 min 0 min 0 W/m 0,0 km/h (0 Bft) 97,87 %
20.07.2021 04:32 13,5 C 12,2 C 11,1 C 89 % 1020,8 hPa 0,0 l/m 0 min 0 min 0 W/m 3,2 km/h (1 Bft) 97,87 %
20.07.2021 04:34 13,5 C 12,2 C 11,1 C 89 % 1020,7 hPa 0,0 l/m 0 min 0 min 0 W/m 3,2 km/h (1 Bft) 97,87 %
20.07.2021 04:36 13,5 C 12,2 C 11,1 C 89 % 1020,7 hPa 0,0 l/m 0 min 0 min 0 W/m 3,2 km/h (1 Bft) 97,87 %
20.07.2021 04:38 13,4 C 12,2 C 11,1 C 89 % 1020,7 hPa 0,0 l/m 0 min 0 min 0 W/m 0,0 km/h (0 Bft) 94,83 %
20.07.2021 04:40 13,4 C 12,2 C 11,1 C 89 % 1020,8 hPa 0,0 l/m 0 min 0 min 0 W/m 0,0 km/h (0 Bft) 97,14 %
20.07.2021 04:42 13,4 C 12,2 C 11,1 C 89 % 1020,7 hPa 0,0 l/m 0 min 0 min 0 W/m 0,0 km/h (0 Bft) 97,87 %
20.07.2021 04:44 13,4 C 12,2 C 11,1 C 89 % 1020,7 hPa 0,0 l/m 0 min 0 min 0 W/m 3,2 km/h (1 Bft) 97,87 %
20.07.2021 04:46 13,4 C 12,2 C 11,1 C 89 % 1020,7 hPa 0,0 l/m 0 min 0 min 0 W/m 0,0 km/h (0 Bft) 97,87 %
20.07.2021 04:48 13,4 C 12,2 C 11,1 C 89 % 1020,7 hPa 0,0 l/m 0 min 0 min 0 W/m 0,0 km/h (0 Bft) 97,87 %
20.07.2021 04:50 13,3 C 12,2 C 11,1 C 89 % 1020,7 hPa 0,0 l/m 0 min 0 min 0 W/m 3,2 km/h (1 Bft) 97,83 %
20.07.2021 04:52 13,3 C 12,2 C 11,1 C 89 % 1020,7 hPa 0,0 l/m 0 min 0 min 0 W/m 0,0 km/h (0 Bft) 95,74 %
20.07.2021 04:54 13,3 C 12,2 C 11,1 C 89 % 1020,7 hPa 0,0 l/m 0 min 0 min 0 W/m 3,2 km/h (1 Bft) 97,87 %
20.07.2021 04:56 13,3 C 12,2 C 11,1 C 89 % 1020,7 hPa 0,0 l/m 0 min 0 min 0 W/m 0,0 km/h (0 Bft) 95,74 %
20.07.2021 04:58 13,3 C 12,2 C 11,1 C 89 % 1020,7 hPa 0,0 l/m 0 min 0 min 0 W/m 0,0 km/h (0 Bft) 97,87 %
20.07.2021 05:00 13,2 C 12,2 C 11,1 C 90 % 1020,7 hPa 0,0 l/m 0 min 0 min 0 W/m 0,0 km/h (0 Bft) 95,74 %
20.07.2021 05:02 13,2 C 12,2 C 11,1 C 90 % 1020,7 hPa 0,0 l/m 0 min 0 min 0 W/m 0,0 km/h (0 Bft) 95,65 %
20.07.2021 05:04 13,1 C 12,2 C 11,1 C 90 % 1020,7 hPa 0,0 l/m 0 min 0 min 0 W/m 3,2 km/h (1 Bft) 97,92 %
20.07.2021 05:06 13,1 C 12,2 C 10,6 C 89 % 1020,6 hPa 0,0 l/m 0 min 0 min 0 W/m 3,2 km/h (1 Bft) 100,00 %
20.07.2021 05:08 13,1 C 12,2 C 10,6 C 90 % 1020,7 hPa 0,0 l/m 0 min 0 min 0 W/m 3,2 km/h (1 Bft) 100,00 %
20.07.2021 05:10 13,1 C 12,2 C 10,6 C 90 % 1020,6 hPa 0,0 l/m 0 min 0 min 0 W/m 0,0 km/h (0 Bft) 100,00 %
20.07.2021 05:12 13,0 C 12,2 C 11,1 C 90 % 1020,7 hPa 0,0 l/m 0 min 0 min 0 W/m 0,0 km/h (0 Bft) 100,00 %
20.07.2021 05:14 13,0 C 12,2 C 11,1 C 90 % 1020,7 hPa 0,0 l/m 0 min 0 min 0 W/m 0,0 km/h (0 Bft) 100,00 %
20.07.2021 05:16 13,0 C 11,7 C 11,1 C 90 % 1020,7 hPa 0,0 l/m 0 min 0 min 0 W/m 0,0 km/h (0 Bft) 100,00 %
20.07.2021 05:18 13,0 C 11,7 C 10,6 C 90 % 1020,7 hPa 0,0 l/m 0 min 0 min 0 W/m 0,0 km/h (0 Bft) 100,00 %
20.07.2021 05:20 13,0 C 11,7 C 10,6 C 90 % 1020,7 hPa 0,0 l/m 0 min 0 min 0 W/m 3,2 km/h (1 Bft) 100,00 %
20.07.2021 05:22 12,9 C 11,7 C 10,6 C 90 % 1020,7 hPa 0,0 l/m 0 min 0 min 0 W/m 3,2 km/h (1 Bft) 100,00 %
20.07.2021 05:24 12,9 C 11,7 C 10,6 C 90 % 1020,8 hPa 0,0 l/m 0 min 0 min 0 W/m 3,2 km/h (1 Bft) 100,00 %
20.07.2021 05:26 12,9 C 11,7 C 10,6 C 90 % 1020,7 hPa 0,0 l/m 0 min 0 min 0 W/m 6,4 km/h (2 Bft) 100,00 %
20.07.2021 05:28 12,8 C 11,7 C 10,6 C 90 % 1020,7 hPa 0,0 l/m 0 min 0 min 0 W/m 3,2 km/h (1 Bft) 100,00 %
20.07.2021 05:30 12,8 C 11,7 C 10,6 C 90 % 1020,7 hPa 0,0 l/m 0 min 0 min 0 W/m 3,2 km/h (1 Bft) 100,00 %
20.07.2021 05:32 12,7 C 11,7 C 10,6 C 90 % 1020,7 hPa 0,0 l/m 0 min 0 min 0 W/m 6,4 km/h (2 Bft) 100,00 %
20.07.2021 05:34 12,7 C 11,7 C 10,6 C 90 % 1020,7 hPa 0,0 l/m 0 min 0 min 0 W/m 0,0 km/h (0 Bft) 97,87 %
20.07.2021 05:36 12,6 C 11,7 C 10,6 C 90 % 1020,7 hPa 0,0 l/m 0 min 0 min 0 W/m 0,0 km/h (0 Bft) 100,00 %
20.07.2021 05:38 12,6 C 11,7 C 10,6 C 90 % 1020,7 hPa 0,0 l/m 0 min 0 min 0 W/m 0,0 km/h (0 Bft) 97,87 %
20.07.2021 05:40 12,6 C 11,7 C 10,6 C 90 % 1020,7 hPa 0,0 l/m 0 min 0 min 0 W/m 3,2 km/h (1 Bft) 100,00 %
20.07.2021 05:42 12,6 C 11,7 C 10,6 C 91 % 1020,7 hPa 0,0 l/m 0 min 0 min 0 W/m 0,0 km/h (0 Bft) 100,00 %
20.07.2021 05:44 12,6 C 11,7 C 10,6 C 91 % 1020,7 hPa 0,0 l/m 0 min 0 min 0 W/m 0,0 km/h (0 Bft) 97,87 %
20.07.2021 05:46 12,6 C 11,7 C 10,6 C 91 % 1020,7 hPa 0,0 l/m 0 min 0 min 2 W/m 3,2 km/h (1 Bft) 97,87 %
20.07.2021 05:48 12,5 C 11,7 C 10,6 C 91 % 1020,7 hPa 0,0 l/m 0 min 0 min 5 W/m 3,2 km/h (1 Bft) 100,00 %
20.07.2021 05:50 12,5 C 11,7 C 10,6 C 91 % 1020,7 hPa 0,0 l/m 0 min 0 min 5 W/m 3,2 km/h (1 Bft) 50,00 %
20.07.2021 05:52 12,5 C 11,7 C 10,6 C 91 % 1020,7 hPa 0,0 l/m 0 min 0 min 6 W/m 3,2 km/h (1 Bft) 95,74 %
20.07.2021 05:54 12,4 C 11,7 C 10,6 C 91 % 1020,7 hPa 0,0 l/m 0 min 0 min 7 W/m 3,2 km/h (1 Bft) 97,87 %
20.07.2021 05:56 12,4 C 11,7 C 10,6 C 91 % 1020,7 hPa 0,0 l/m 0 min 0 min 8 W/m 6,4 km/h (2 Bft) 97,87 %
20.07.2021 05:58 12,4 C 11,7 C 10,6 C 91 % 1020,7 hPa 0,0 l/m 0 min 0 min 9 W/m 6,4 km/h (2 Bft) 97,87 %
20.07.2021 06:00 12,4 C 11,7 C 10,6 C 91 % 1020,7 hPa 0,0 l/m 0 min 0 min 10 W/m 0,0 km/h (0 Bft) 95,65 %
20.07.2021 06:02 12,3 C 11,7 C 10,6 C 91 % 1020,7 hPa 0,0 l/m 0 min 0 min 11 W/m 3,2 km/h (1 Bft) 95,74 %
20.07.2021 06:04 12,3 C 11,7 C 10,6 C 91 % 1020,7 hPa 0,0 l/m 0 min 0 min 12 W/m 3,2 km/h (1 Bft) 97,87 %
20.07.2021 06:08 12,3 C 11,7 C 10,6 C 91 % 1020,8 hPa 0,0 l/m 0 min 0 min 13 W/m 6,4 km/h (2 Bft) 97,87 %
20.07.2021 06:10 12,3 C 11,7 C 10,6 C 91 % 1020,7 hPa 0,0 l/m 0 min 0 min 15 W/m 0,0 km/h (0 Bft) 97,87 %
20.07.2021 06:12 12,3 C 11,7 C 10,6 C 92 % 1020,8 hPa 0,0 l/m 0 min 0 min 16 W/m 3,2 km/h (1 Bft) 97,83 %
20.07.2021 06:14 12,3 C 11,7 C 10,6 C 92 % 1020,7 hPa 0,0 l/m 0 min 0 min 18 W/m 3,2 km/h (1 Bft) 95,74 %
20.07.2021 06:16 12,4 C 11,7 C 10,6 C 92 % 1020,7 hPa 0,0 l/m 0 min 0 min 18 W/m 3,2 km/h (1 Bft) 97,87 %
20.07.2021 06:18 12,4 C 11,7 C 10,6 C 92 % 1020,8 hPa 0,0 l/m 0 min 0 min 19 W/m 0,0 km/h (0 Bft) 97,87 %
20.07.2021 06:20 12,4 C 11,7 C 10,6 C 92 % 1020,7 hPa 0,0 l/m 0 min 0 min 20 W/m 3,2 km/h (1 Bft) 97,87 %
20.07.2021 06:22 12,4 C 11,7 C 10,6 C 92 % 1020,7 hPa 0,0 l/m 0 min 0 min 21 W/m 3,2 km/h (1 Bft) 97,87 %
20.07.2021 06:24 12,3 C 11,7 C 10,6 C 92 % 1020,7 hPa 0,0 l/m 0 min 0 min 22 W/m 3,2 km/h (1 Bft) 97,83 %
20.07.2021 06:26 12,3 C 11,7 C 10,6 C 92 % 1020,7 hPa 0,0 l/m 0 min 0 min 23 W/m 0,0 km/h (0 Bft) 97,87 %
20.07.2021 06:28 12,4 C 11,7 C 10,6 C 92 % 1020,7 hPa 0,0 l/m 0 min 0 min 25 W/m 0,0 km/h (0 Bft) 97,87 %
20.07.2021 06:30 12,4 C 11,7 C 10,6 C 92 % 1020,7 hPa 0,0 l/m 0 min 0 min 25 W/m 0,0 km/h (0 Bft) 95,74 %
20.07.2021 06:32 12,4 C 11,7 C 11,1 C 92 % 1020,7 hPa 0,0 l/m 0 min 0 min 26 W/m 0,0 km/h (0 Bft) 95,74 %
20.07.2021 06:34 12,4 C 12,2 C 11,1 C 92 % 1020,7 hPa 0,0 l/m 0 min 0 min 26 W/m 3,2 km/h (1 Bft) 100,00 %
20.07.2021 06:36 12,4 C 12,2 C 11,1 C 92 % 1020,7 hPa 0,0 l/m 0 min 0 min 28 W/m 3,2 km/h (1 Bft) 100,00 %
20.07.2021 06:38 12,4 C 12,2 C 11,1 C 92 % 1020,7 hPa 0,0 l/m 0 min 0 min 28 W/m 0,0 km/h (0 Bft) 100,00 %
20.07.2021 06:40 12,4 C 12,2 C 11,1 C 92 % 1020,7 hPa 0,0 l/m 0 min 0 min 30 W/m 3,2 km/h (1 Bft) 100,00 %
20.07.2021 06:42 12,4 C 12,2 C 11,1 C 93 % 1020,7 hPa 0,0 l/m 0 min 0 min 31 W/m 3,2 km/h (1 Bft) 100,00 %
20.07.2021 06:44 12,5 C 12,2 C 11,1 C 93 % 1020,7 hPa 0,0 l/m 0 min 0 min 32 W/m 3,2 km/h (1 Bft) 97,87 %
20.07.2021 06:46 12,5 C 12,2 C 11,1 C 93 % 1020,7 hPa 0,0 l/m 0 min 0 min 32 W/m 3,2 km/h (1 Bft) 97,83 %
20.07.2021 06:48 12,5 C 12,2 C 11,1 C 93 % 1020,8 hPa 0,0 l/m 0 min 0 min 33 W/m 3,2 km/h (1 Bft) 100,00 %
20.07.2021 06:50 12,5 C 12,2 C 11,1 C 93 % 1020,7 hPa 0,0 l/m 0 min 0 min 34 W/m 6,4 km/h (2 Bft) 100,00 %
20.07.2021 06:52 12,5 C 12,2 C 11,1 C 93 % 1020,8 hPa 0,0 l/m 0 min 0 min 35 W/m 3,2 km/h (1 Bft) 100,00 %
20.07.2021 06:54 12,5 C 12,2 C 11,1 C 93 % 1020,8 hPa 0,0 l/m 0 min 0 min 36 W/m 3,2 km/h (1 Bft) 100,00 %
20.07.2021 06:56 12,5 C 12,2 C 11,7 C 93 % 1020,7 hPa 0,0 l/m 0 min 0 min 37 W/m 0,0 km/h (0 Bft) 100,00 %
20.07.2021 06:58 12,6 C 12,2 C 11,7 C 93 % 1020,8 hPa 0,0 l/m 0 min 0 min 38 W/m 3,2 km/h (1 Bft) 100,00 %
20.07.2021 07:00 12,6 C 12,2 C 11,7 C 93 % 1020,8 hPa 0,0 l/m 0 min 0 min 39 W/m 3,2 km/h (1 Bft) 100,00 %
20.07.2021 07:02 12,6 C 12,2 C 11,7 C 93 % 1020,8 hPa 0,0 l/m 0 min 0 min 40 W/m 3,2 km/h (1 Bft) 100,00 %
20.07.2021 07:04 12,6 C 12,2 C 11,7 C 93 % 1020,8 hPa 0,0 l/m 0 min 0 min 40 W/m 0,0 km/h (0 Bft) 100,00 %
20.07.2021 07:06 12,6 C 12,8 C 11,7 C 93 % 1020,9 hPa 0,0 l/m 0 min 0 min 42 W/m 0,0 km/h (0 Bft) 97,87 %
20.07.2021 07:08 12,7 C 12,8 C 11,7 C 93 % 1020,9 hPa 0,0 l/m 0 min 0 min 43 W/m 3,2 km/h (1 Bft) 100,00 %
20.07.2021 07:10 12,7 C 12,8 C 11,7 C 93 % 1020,9 hPa 0,0 l/m 0 min 0 min 44 W/m 3,2 km/h (1 Bft) 97,83 %
20.07.2021 07:12 12,8 C 12,8 C 11,7 C 93 % 1021,0 hPa 0,0 l/m 0 min 0 min 46 W/m 0,0 km/h (0 Bft) 100,00 %
20.07.2021 07:14 12,8 C 12,8 C 11,7 C 93 % 1021,0 hPa 0,0 l/m 0 min 0 min 46 W/m 3,2 km/h (1 Bft) 100,00 %
20.07.2021 07:16 12,8 C 12,8 C 11,7 C 93 % 1021,0 hPa 0,0 l/m 0 min 0 min 47 W/m 3,2 km/h (1 Bft) 100,00 %
20.07.2021 07:18 12,8 C 12,8 C 11,7 C 93 % 1021,0 hPa 0,0 l/m 0 min 0 min 48 W/m 3,2 km/h (1 Bft) 100,00 %
20.07.2021 07:20 12,9 C 12,8 C 11,7 C 93 % 1021,0 hPa 0,0 l/m 0 min 0 min 49 W/m 3,2 km/h (1 Bft) 100,00 %
20.07.2021 07:22 12,9 C 12,8 C 12,3 C 93 % 1021,1 hPa 0,0 l/m 0 min 0 min 50 W/m 0,0 km/h (0 Bft) 100,00 %
20.07.2021 07:24 13,0 C 12,8 C 12,3 C 93 % 1021,1 hPa 0,0 l/m 0 min 0 min 52 W/m 0,0 km/h (0 Bft) 100,00 %
20.07.2021 07:26 13,0 C 12,8 C 12,3 C 93 % 1021,1 hPa 0,0 l/m 0 min 0 min 53 W/m 3,2 km/h (1 Bft) 100,00 %
20.07.2021 07:28 13,0 C 13,3 C 12,3 C 93 % 1021,1 hPa 0,0 l/m 0 min 0 min 54 W/m 3,2 km/h (1 Bft) 97,87 %
20.07.2021 07:30 13,0 C 13,3 C 12,3 C 93 % 1021,1 hPa 0,0 l/m 0 min 0 min 56 W/m 3,2 km/h (1 Bft) 100,00 %
20.07.2021 07:32 13,1 C 13,3 C 12,3 C 93 % 1021,1 hPa 0,0 l/m 0 min 0 min 57 W/m 3,2 km/h (1 Bft) 100,00 %
20.07.2021 07:34 13,1 C 13,3 C 12,3 C 93 % 1021,1 hPa 0,0 l/m 0 min 0 min 58 W/m 6,4 km/h (2 Bft) 97,83 %
20.07.2021 07:36 13,1 C 13,3 C 12,3 C 93 % 1021,1 hPa 0,0 l/m 0 min 0 min 60 W/m 6,4 km/h (2 Bft) 97,87 %
20.07.2021 07:38 13,1 C 13,3 C 12,3 C 93 % 1021,1 hPa 0,0 l/m 0 min 0 min 60 W/m 3,2 km/h (1 Bft) 97,87 %
20.07.2021 07:40 13,1 C 13,3 C 12,3 C 93 % 1021,1 hPa 0,0 l/m 0 min 0 min 62 W/m 3,2 km/h (1 Bft) 97,87 %
20.07.2021 07:42 13,2 C 13,3 C 12,3 C 93 % 1021,1 hPa 0,0 l/m 0 min 0 min 62 W/m 6,4 km/h (2 Bft) 97,87 %
20.07.2021 07:44 13,3 C 13,9 C 12,3 C 93 % 1021,1 hPa 0,0 l/m 0 min 0 min 63 W/m 3,2 km/h (1 Bft) 97,87 %
20.07.2021 07:46 13,3 C 13,9 C 12,8 C 93 % 1021,1 hPa 0,0 l/m 0 min 0 min 64 W/m 3,2 km/h (1 Bft) 97,83 %
20.07.2021 07:48 13,4 C 13,9 C 12,8 C 93 % 1021,1 hPa 0,0 l/m 0 min 0 min 65 W/m 3,2 km/h (1 Bft) 95,74 %
20.07.2021 07:50 13,4 C 13,9 C 12,8 C 93 % 1021,2 hPa 0,0 l/m 0 min 0 min 67 W/m 6,4 km/h (2 Bft) 95,74 %
20.07.2021 07:52 13,5 C 13,9 C 12,8 C 93 % 1021,2 hPa 0,0 l/m 0 min 0 min 68 W/m 6,4 km/h (2 Bft) 97,87 %
20.07.2021 07:54 13,5 C 13,9 C 12,8 C 93 % 1021,1 hPa 0,0 l/m 0 min 0 min 69 W/m 6,4 km/h (2 Bft) 97,87 %
20.07.2021 07:56 13,5 C 13,9 C 12,8 C 93 % 1021,1 hPa 0,0 l/m 0 min 0 min 70 W/m 6,4 km/h (2 Bft) 97,87 %
20.07.2021 07:58 13,6 C 13,9 C 12,8 C 93 % 1021,2 hPa 0,0 l/m 0 min 0 min 71 W/m 6,4 km/h (2 Bft) 95,65 %
20.07.2021 08:00 13,6 C 14,4 C 13,4 C 93 % 1021,2 hPa 0,0 l/m 0 min 0 min 129 W/m 9,7 km/h (2 Bft) 95,74 %
20.07.2021 08:02 13,8 C 14,4 C 13,4 C 92 % 1021,2 hPa 0,0 l/m 2 min 0 min 217 W/m 6,4 km/h (2 Bft) 95,74 %
20.07.2021 08:04 13,8 C 14,4 C 13,4 C 92 % 1021,3 hPa 0,0 l/m 2 min 0 min 223 W/m 6,4 km/h (2 Bft) 97,87 %
20.07.2021 08:06 13,9 C 14,4 C 13,4 C 92 % 1021,3 hPa 0,0 l/m 2 min 0 min 230 W/m 3,2 km/h (1 Bft) 95,74 %
20.07.2021 08:08 13,9 C 14,4 C 13,4 C 92 % 1021,3 hPa 0,0 l/m 2 min 0 min 239 W/m 3,2 km/h (1 Bft) 97,87 %
20.07.2021 08:10 14,0 C 14,4 C 13,4 C 92 % 1021,3 hPa 0,0 l/m 2 min 0 min 245 W/m 6,4 km/h (2 Bft) 97,83 %
20.07.2021 08:12 14,1 C 14,4 C 13,4 C 91 % 1021,3 hPa 0,0 l/m 2 min 0 min 252 W/m 3,2 km/h (1 Bft) 95,74 %
20.07.2021 08:14 14,2 C 14,4 C 13,4 C 91 % 1021,3 hPa 0,0 l/m 2 min 0 min 259 W/m 6,4 km/h (2 Bft) 97,87 %
20.07.2021 08:16 14,2 C 15,0 C 13,4 C 91 % 1021,4 hPa 0,0 l/m 2 min 0 min 265 W/m 6,4 km/h (2 Bft) 97,87 %
20.07.2021 08:18 14,2 C 15,0 C 13,4 C 91 % 1021,3 hPa 0,0 l/m 2 min 0 min 270 W/m 3,2 km/h (1 Bft) 95,74 %
20.07.2021 08:20 14,3 C 15,6 C 13,4 C 91 % 1021,3 hPa 0,0 l/m 2 min 0 min 260 W/m 9,7 km/h (2 Bft) 95,74 %
20.07.2021 08:22 14,4 C 16,1 C 13,9 C 91 % 1021,4 hPa 0,0 l/m 2 min 0 min 204 W/m 6,4 km/h (2 Bft) 95,65 %
20.07.2021 08:24 14,5 C 16,1 C 13,9 C 90 % 1021,4 hPa 0,0 l/m 2 min 0 min 238 W/m 3,2 km/h (1 Bft) 93,62 %
20.07.2021 08:26 14,6 C 16,7 C 13,9 C 90 % 1021,4 hPa 0,0 l/m 2 min 0 min 292 W/m 3,2 km/h (1 Bft) 97,87 %
20.07.2021 08:28 14,8 C 16,7 C 13,9 C 90 % 1021,4 hPa 0,0 l/m 2 min 0 min 294 W/m 6,4 km/h (2 Bft) 97,87 %
20.07.2021 08:30 14,9 C 17,2 C 13,9 C 90 % 1021,4 hPa 0,0 l/m 2 min 0 min 305 W/m 12,9 km/h (3 Bft) 97,87 %
20.07.2021 08:32 15,1 C 17,8 C 13,9 C 89 % 1021,4 hPa 0,0 l/m 2 min 0 min 317 W/m 3,2 km/h (1 Bft) 97,83 %
20.07.2021 08:34 15,3 C 17,8 C 14,5 C 89 % 1021,4 hPa 0,0 l/m 2 min 0 min 323 W/m 3,2 km/h (1 Bft) 97,87 %
20.07.2021 08:36 15,4 C 17,8 C 14,5 C 88 % 1021,3 hPa 0,0 l/m 2 min 0 min 328 W/m 6,4 km/h (2 Bft) 95,74 %
20.07.2021 08:38 15,5 C 18,3 C 14,5 C 88 % 1021,4 hPa 0,0 l/m 2 min 0 min 334 W/m 6,4 km/h (2 Bft) 95,74 %
20.07.2021 08:40 15,8 C 18,9 C 15,0 C 87 % 1021,3 hPa 0,0 l/m 2 min 0 min 343 W/m 6,4 km/h (2 Bft) 97,87 %
20.07.2021 08:42 15,9 C 18,9 C 15,6 C 87 % 1021,3 hPa 0,0 l/m 2 min 0 min 347 W/m 6,4 km/h (2 Bft) 97,87 %
20.07.2021 08:44 16,0 C 19,4 C 15,6 C 86 % 1021,4 hPa 0,0 l/m 2 min 0 min 350 W/m 12,9 km/h (3 Bft) 95,65 %
20.07.2021 08:46 16,2 C 20,0 C 15,6 C 86 % 1021,4 hPa 0,0 l/m 2 min 0 min 357 W/m 6,4 km/h (2 Bft) 93,62 %
20.07.2021 08:48 16,4 C 20,0 C 16,1 C 85 % 1021,4 hPa 0,0 l/m 2 min 0 min 362 W/m 6,4 km/h (2 Bft) 97,87 %
20.07.2021 08:50 16,6 C 20,0 C 16,1 C 85 % 1021,4 hPa 0,0 l/m 2 min 0 min 368 W/m 9,7 km/h (2 Bft) 95,74 %
20.07.2021 08:52 16,6 C 19,4 C 16,1 C 83 % 1021,5 hPa 0,0 l/m 2 min 0 min 374 W/m 6,4 km/h (2 Bft) 95,74 %
20.07.2021 08:54 16,7 C 19,4 C 16,7 C 83 % 1021,5 hPa 0,0 l/m 2 min 0 min 380 W/m 6,4 km/h (2 Bft) 93,62 %
20.07.2021 08:56 16,6 C 19,4 C 16,7 C 82 % 1021,5 hPa 0,0 l/m 2 min 0 min 386 W/m 6,4 km/h (2 Bft) 95,65 %
20.07.2021 08:58 16,8 C 20,0 C 16,7 C 83 % 1021,5 hPa 0,0 l/m 2 min 0 min 393 W/m 9,7 km/h (2 Bft) 95,74 %
20.07.2021 09:00 16,9 C 20,6 C 17,3 C 83 % 1021,5 hPa 0,0 l/m 2 min 0 min 400 W/m 9,7 km/h (2 Bft) 95,74 %
20.07.2021 09:02 17,0 C 20,6 C 17,3 C 82 % 1021,6 hPa 0,0 l/m 2 min 0 min 408 W/m 3,2 km/h (1 Bft) 95,92 %
20.07.2021 09:04 17,0 C 21,1 C 17,8 C 82 % 1021,5 hPa 0,0 l/m 2 min 0 min 414 W/m 3,2 km/h (1 Bft) 95,74 %
20.07.2021 09:06 17,1 C 21,7 C 17,8 C 81 % 1021,5 hPa 0,0 l/m 2 min 0 min 420 W/m 6,4 km/h (2 Bft) 95,74 %
20.07.2021 09:08 17,2 C 22,2 C 17,8 C 81 % 1021,6 hPa 0,0 l/m 2 min 0 min 424 W/m 9,7 km/h (2 Bft) 95,74 %
20.07.2021 09:10 17,3 C 22,8 C 17,8 C 82 % 1021,6 hPa 0,0 l/m 2 min 0 min 430 W/m 9,7 km/h (2 Bft) 95,74 %
20.07.2021 09:12 17,4 C 22,8 C 17,8 C 81 % 1021,6 hPa 0,0 l/m 2 min 0 min 436 W/m 12,9 km/h (3 Bft) 93,62 %
20.07.2021 09:14 17,5 C 22,8 C 17,8 C 80 % 1021,5 hPa 0,0 l/m 2 min 0 min 443 W/m 9,7 km/h (2 Bft) 95,65 %
20.07.2021 09:16 17,6 C 23,3 C 18,4 C 80 % 1021,5 hPa 0,0 l/m 2 min 0 min 445 W/m 6,4 km/h (2 Bft) 93,62 %
20.07.2021 09:18 17,8 C 23,3 C 18,4 C 80 % 1021,5 hPa 0,0 l/m 2 min 0 min 450 W/m 9,7 km/h (2 Bft) 95,74 %
20.07.2021 09:20 17,9 C 23,9 C 18,4 C 79 % 1021,5 hPa 0,0 l/m 2 min 0 min 453 W/m 9,7 km/h (2 Bft) 95,74 %
20.07.2021 09:22 18,0 C 24,4 C 18,4 C 80 % 1021,5 hPa 0,0 l/m 2 min 0 min 460 W/m 9,7 km/h (2 Bft) 95,74 %
20.07.2021 09:24 18,1 C 23,9 C 18,4 C 79 % 1021,5 hPa 0,0 l/m 2 min 0 min 468 W/m 9,7 km/h (2 Bft) 95,74 %
20.07.2021 09:26 18,1 C 23,9 C 18,9 C 78 % 1021,5 hPa 0,0 l/m 2 min 0 min 464 W/m 12,9 km/h (3 Bft) 95,65 %
20.07.2021 09:28 18,2 C 23,3 C 18,9 C 78 % 1021,5 hPa 0,0 l/m 2 min 0 min 463 W/m 9,7 km/h (2 Bft) 95,74 %
20.07.2021 09:30 18,3 C 23,3 C 18,9 C 78 % 1021,5 hPa 0,0 l/m 2 min 0 min 490 W/m 6,4 km/h (2 Bft) 95,74 %
20.07.2021 09:32 18,3 C 23,3 C 19,5 C 78 % 1021,5 hPa 0,0 l/m 2 min 0 min 496 W/m 6,4 km/h (2 Bft) 95,74 %
20.07.2021 09:34 18,4 C 23,9 C 19,5 C 78 % 1021,5 hPa 0,0 l/m 2 min 0 min 501 W/m 9,7 km/h (2 Bft) 95,74 %
20.07.2021 09:36 18,5 C 23,9 C 19,5 C 78 % 1021,5 hPa 0,0 l/m 2 min 0 min 507 W/m 9,7 km/h (2 Bft) 95,74 %
20.07.2021 09:38 18,5 C 24,4 C 19,5 C 77 % 1021,5 hPa 0,0 l/m 2 min 0 min 503 W/m 12,9 km/h (3 Bft) 95,74 %
20.07.2021 09:40 18,6 C 23,9 C 19,5 C 77 % 1021,5 hPa 0,0 l/m 2 min 0 min 509 W/m 6,4 km/h (2 Bft) 93,62 %
20.07.2021 09:42 18,8 C 23,9 C 20,0 C 77 % 1021,6 hPa 0,0 l/m 2 min 0 min 511 W/m 12,9 km/h (3 Bft) 95,74 %
20.07.2021 09:44 18,8 C 22,8 C 20,0 C 76 % 1021,6 hPa 0,0 l/m 2 min 0 min 543 W/m 12,9 km/h (3 Bft) 95,74 %
20.07.2021 09:46 18,7 C 22,2 C 18,9 C 76 % 1021,6 hPa 0,0 l/m 2 min 0 min 365 W/m 9,7 km/h (2 Bft) 93,62 %
20.07.2021 09:48 18,7 C 21,1 C 18,4 C 76 % 1021,6 hPa 0,0 l/m 0 min 0 min 230 W/m 12,9 km/h (3 Bft) 95,74 %
20.07.2021 09:50 18,7 C 21,1 C 18,4 C 76 % 1021,6 hPa 0,0 l/m 0 min 0 min 172 W/m 6,4 km/h (2 Bft) 97,83 %
20.07.2021 09:52 18,7 C 21,1 C 18,4 C 76 % 1021,6 hPa 0,0 l/m 2 min 0 min 497 W/m 12,9 km/h (3 Bft) 97,87 %
20.07.2021 09:54 18,8 C 21,7 C 18,9 C 76 % 1021,6 hPa 0,0 l/m 0 min 0 min 169 W/m 9,7 km/h (2 Bft) 97,87 %
20.07.2021 09:56 18,8 C 21,7 C 19,5 C 75 % 1021,6 hPa 0,0 l/m 2 min 0 min 502 W/m 6,4 km/h (2 Bft) 97,87 %
20.07.2021 09:58 18,8 C 22,2 C 20,0 C 76 % 1021,6 hPa 0,0 l/m 2 min 0 min 603 W/m 6,4 km/h (2 Bft) 97,87 %
20.07.2021 10:00 18,8 C 21,7 C 19,5 C 75 % 1021,6 hPa 0,0 l/m 2 min 0 min 510 W/m 9,7 km/h (2 Bft) 97,83 %
20.07.2021 10:02 18,7 C 21,1 C 18,9 C 75 % 1021,6 hPa 0,0 l/m 0 min 0 min 188 W/m 9,7 km/h (2 Bft) 97,87 %
20.07.2021 10:04 18,8 C 22,2 C 19,5 C 76 % 1021,6 hPa 0,0 l/m 2 min 0 min 650 W/m 12,9 km/h (3 Bft) 100,00 %
20.07.2021 10:06 18,8 C 22,2 C 20,0 C 75 % 1021,6 hPa 0,0 l/m 2 min 0 min 701 W/m 16,1 km/h (3 Bft) 100,00 %
20.07.2021 10:08 18,9 C 23,3 C 20,6 C 75 % 1021,6 hPa 0,0 l/m 2 min 0 min 712 W/m 9,7 km/h (2 Bft) 100,00 %
20.07.2021 10:10 19,0 C 23,9 C 20,6 C 74 % 1021,6 hPa 0,0 l/m 2 min 0 min 752 W/m 12,9 km/h (3 Bft) 100,00 %
20.07.2021 10:12 19,1 C 23,9 C 21,1 C 74 % 1021,6 hPa 0,0 l/m 2 min 0 min 764 W/m 6,4 km/h (2 Bft) 95,65 %
20.07.2021 10:14 19,3 C 23,9 C 21,1 C 74 % 1021,6 hPa 0,0 l/m 2 min 0 min 616 W/m 6,4 km/h (2 Bft) 97,87 %
20.07.2021 10:16 19,3 C 22,8 C 20,0 C 72 % 1021,6 hPa 0,0 l/m 2 min 0 min 380 W/m 12,9 km/h (3 Bft) 97,87 %
20.07.2021 10:18 19,3 C 22,2 C 20,6 C 72 % 1021,6 hPa 0,0 l/m 2 min 0 min 359 W/m 9,7 km/h (2 Bft) 95,74 %
20.07.2021 10:20 19,4 C 22,8 C 20,6 C 73 % 1021,6 hPa 0,0 l/m 2 min 0 min 693 W/m 9,7 km/h (2 Bft) 97,87 %
20.07.2021 10:22 19,5 C 22,8 C 20,0 C 72 % 1021,6 hPa 0,0 l/m 2 min 0 min 742 W/m 19,3 km/h (3 Bft) 95,74 %
20.07.2021 10:24 19,5 C 21,7 C 18,9 C 71 % 1021,6 hPa 0,0 l/m 2 min 0 min 429 W/m 19,3 km/h (3 Bft) 95,65 %
20.07.2021 10:26 19,5 C 20,6 C 18,4 C 70 % 1021,6 hPa 0,0 l/m 2 min 0 min 325 W/m 19,3 km/h (3 Bft) 97,87 %
20.07.2021 10:28 19,4 C 20,0 C 17,8 C 70 % 1021,6 hPa 0,0 l/m 0 min 0 min 303 W/m 9,7 km/h (2 Bft) 95,74 %
20.07.2021 10:30 19,3 C 20,0 C 17,8 C 71 % 1021,6 hPa 0,0 l/m 0 min 0 min 315 W/m 6,4 km/h (2 Bft) 97,87 %
20.07.2021 10:32 19,2 C 20,0 C 17,8 C 71 % 1021,6 hPa 0,0 l/m 0 min 0 min 312 W/m 9,7 km/h (2 Bft) 97,87 %
20.07.2021 10:34 19,2 C 19,4 C 17,8 C 71 % 1021,6 hPa 0,0 l/m 0 min 0 min 302 W/m 16,1 km/h (3 Bft) 95,74 %
20.07.2021 10:36 19,1 C 20,0 C 17,3 C 71 % 1021,7 hPa 0,0 l/m 0 min 0 min 272 W/m 12,9 km/h (3 Bft) 97,83 %
20.07.2021 10:38 19,1 C 19,4 C 17,3 C 71 % 1021,7 hPa 0,0 l/m 0 min 0 min 242 W/m 12,9 km/h (3 Bft) 97,87 %
20.07.2021 10:40 19,1 C 19,4 C 17,3 C 72 % 1021,7 hPa 0,0 l/m 0 min 0 min 248 W/m 9,7 km/h (2 Bft) 97,87 %
20.07.2021 10:42 19,1 C 19,4 C 17,3 C 72 % 1021,7 hPa 0,0 l/m 0 min 0 min 267 W/m 6,4 km/h (2 Bft) 95,74 %
20.07.2021 10:44 19,0 C 19,4 C 17,3 C 72 % 1021,7 hPa 0,0 l/m 0 min 0 min 275 W/m 9,7 km/h (2 Bft) 95,74 %
20.07.2021 10:46 19,0 C 19,4 C 17,3 C 71 % 1021,7 hPa 0,0 l/m 0 min 0 min 276 W/m 19,3 km/h (3 Bft) 97,87 %
20.07.2021 10:48 19,0 C 20,0 C 18,4 C 72 % 1021,7 hPa 0,0 l/m 2 min 0 min 422 W/m 9,7 km/h (2 Bft) 97,83 %
20.07.2021 10:50 18,9 C 19,4 C 18,4 C 71 % 1021,6 hPa 0,0 l/m 2 min 0 min 532 W/m 9,7 km/h (2 Bft) 97,87 %
20.07.2021 10:52 18,9 C 19,4 C 17,8 C 72 % 1021,7 hPa 0,0 l/m 0 min 0 min 236 W/m 16,1 km/h (3 Bft) 97,87 %
20.07.2021 10:54 18,9 C 19,4 C 17,8 C 72 % 1021,7 hPa 0,0 l/m 0 min 0 min 208 W/m 9,7 km/h (2 Bft) 100,00 %
20.07.2021 10:56 18,9 C 19,4 C 17,3 C 72 % 1021,6 hPa 0,0 l/m 0 min 0 min 193 W/m 9,7 km/h (2 Bft) 100,00 %
20.07.2021 10:58 18,9 C 18,9 C 16,7 C 72 % 1021,7 hPa 0,0 l/m 0 min 0 min 190 W/m 9,7 km/h (2 Bft) 100,00 %
20.07.2021 11:00 18,9 C 18,9 C 17,3 C 72 % 1021,7 hPa 0,0 l/m 0 min 0 min 199 W/m 6,4 km/h (2 Bft) 100,00 %
20.07.2021 11:02 18,8 C 18,9 C 16,7 C 72 % 1021,7 hPa 0,0 l/m 0 min 0 min 199 W/m 9,7 km/h (2 Bft) 100,00 %
20.07.2021 11:04 18,8 C 18,9 C 16,7 C 72 % 1021,6 hPa 0,0 l/m 0 min 0 min 210 W/m 6,4 km/h (2 Bft) 100,00 %
20.07.2021 11:06 18,8 C 18,9 C 16,7 C 72 % 1021,6 hPa 0,0 l/m 0 min 0 min 213 W/m 6,4 km/h (2 Bft) 100,00 %
20.07.2021 11:08 18,8 C 18,9 C 16,7 C 72 % 1021,7 hPa 0,0 l/m 0 min 0 min 216 W/m 16,1 km/h (3 Bft) 100,00 %
20.07.2021 11:10 18,7 C 18,9 C 16,7 C 71 % 1021,7 hPa 0,0 l/m 0 min 0 min 236 W/m 12,9 km/h (3 Bft) 100,00 %
20.07.2021 11:12 18,6 C 18,9 C 16,7 C 71 % 1021,7 hPa 0,0 l/m 0 min 0 min 252 W/m 9,7 km/h (2 Bft) 100,00 %
20.07.2021 11:14 18,6 C 18,9 C 17,3 C 71 % 1021,7 hPa 0,0 l/m 0 min 0 min 271 W/m 9,7 km/h (2 Bft) 97,87 %
20.07.2021 11:16 18,6 C 19,4 C 17,3 C 71 % 1021,7 hPa 0,0 l/m 0 min 0 min 301 W/m 16,1 km/h (3 Bft) 100,00 %
20.07.2021 11:18 18,6 C 19,4 C 17,3 C 71 % 1021,7 hPa 0,0 l/m 0 min 0 min 297 W/m 6,4 km/h (2 Bft) 100,00 %
20.07.2021 11:20 18,7 C 20,0 C 17,3 C 71 % 1021,7 hPa 0,0 l/m 0 min 0 min 321 W/m 19,3 km/h (3 Bft) 100,00 %
20.07.2021 11:22 18,8 C 20,0 C 17,8 C 72 % 1021,7 hPa 0,0 l/m 2 min 0 min 687 W/m 9,7 km/h (2 Bft) 100,00 %
20.07.2021 11:24 18,9 C 20,0 C 17,8 C 71 % 1021,7 hPa 0,0 l/m 0 min 0 min 278 W/m 12,9 km/h (3 Bft) 100,00 %
20.07.2021 11:26 18,9 C 20,0 C 18,4 C 71 % 1021,7 hPa 0,0 l/m 0 min 0 min 334 W/m 9,7 km/h (2 Bft) 100,00 %
20.07.2021 11:28 19,0 C 20,6 C 18,4 C 71 % 1021,7 hPa 0,0 l/m 0 min 0 min 313 W/m 12,9 km/h (3 Bft) 100,00 %
20.07.2021 11:30 19,1 C 20,6 C 18,4 C 70 % 1021,7 hPa 0,0 l/m 0 min 0 min 298 W/m 6,4 km/h (2 Bft) 100,00 %
20.07.2021 11:32 19,1 C 20,6 C 17,8 C 70 % 1021,7 hPa 0,0 l/m 0 min 0 min 288 W/m 12,9 km/h (3 Bft) 100,00 %
20.07.2021 11:34 19,2 C 20,6 C 17,8 C 70 % 1021,7 hPa 0,0 l/m 0 min 0 min 288 W/m 12,9 km/h (3 Bft) 100,00 %
20.07.2021 11:36 19,3 C 20,0 C 17,8 C 70 % 1021,7 hPa 0,0 l/m 0 min 0 min 287 W/m 12,9 km/h (3 Bft) 100,00 %
20.07.2021 11:38 19,3 C 20,0 C 17,3 C 70 % 1021,8 hPa 0,0 l/m 0 min 0 min 277 W/m 16,1 km/h (3 Bft) 100,00 %
20.07.2021 11:40 19,3 C 20,0 C 17,3 C 70 % 1021,8 hPa 0,0 l/m 0 min 0 min 296 W/m 16,1 km/h (3 Bft) 100,00 %
20.07.2021 11:42 19,3 C 20,0 C 17,8 C 70 % 1021,8 hPa 0,0 l/m 2 min 0 min 383 W/m 9,7 km/h (2 Bft) 100,00 %
20.07.2021 11:44 19,3 C 20,6 C 18,4 C 71 % 1021,8 hPa 0,0 l/m 2 min 0 min 380 W/m 12,9 km/h (3 Bft) 100,00 %
20.07.2021 11:46 19,4 C 20,6 C 18,4 C 70 % 1021,8 hPa 0,0 l/m 0 min 0 min 349 W/m 9,7 km/h (2 Bft) 100,00 %
20.07.2021 11:48 19,4 C 20,6 C 17,8 C 70 % 1021,8 hPa 0,0 l/m 0 min 0 min 245 W/m 6,4 km/h (2 Bft) 100,00 %
20.07.2021 11:50 19,4 C 20,6 C 17,8 C 70 % 1021,7 hPa 0,0 l/m 0 min 0 min 259 W/m 6,4 km/h (2 Bft) 100,00 %
20.07.2021 11:52 19,4 C 20,6 C 17,8 C 70 % 1021,7 hPa 0,0 l/m 0 min 0 min 283 W/m 9,7 km/h (2 Bft) 97,83 %
20.07.2021 11:54 19,4 C 20,6 C 17,8 C 70 % 1021,7 hPa 0,0 l/m 0 min 0 min 302 W/m 12,9 km/h (3 Bft) 100,00 %
20.07.2021 11:56 19,4 C 20,0 C 17,8 C 70 % 1021,7 hPa 0,0 l/m 0 min 0 min 321 W/m 9,7 km/h (2 Bft) 100,00 %
20.07.2021 11:58 19,4 C 20,0 C 17,8 C 69 % 1021,7 hPa 0,0 l/m 0 min 0 min 341 W/m 12,9 km/h (3 Bft) 100,00 %
20.07.2021 12:00 19,4 C 20,0 C 17,8 C 69 % 1021,7 hPa 0,0 l/m 0 min 0 min 354 W/m 9,7 km/h (2 Bft) 100,00 %
20.07.2021 12:02 19,4 C 20,0 C 17,8 C 70 % 1021,7 hPa 0,0 l/m 2 min 0 min 396 W/m 16,1 km/h (3 Bft) 100,00 %
20.07.2021 12:04 19,4 C 21,1 C 18,9 C 69 % 1021,7 hPa 0,0 l/m 2 min 0 min 487 W/m 9,7 km/h (2 Bft) 98,28 %
20.07.2021 12:08 19,6 C 22,2 C 20,0 C 69 % 1021,6 hPa 0,0 l/m 4 min 0 min 788 W/m 9,7 km/h (2 Bft) 100,00 %
20.07.2021 12:10 19,9 C 23,3 C 20,0 C 68 % 1021,6 hPa 0,0 l/m 2 min 0 min 905 W/m 12,9 km/h (3 Bft) 100,00 %
20.07.2021 12:12 20,0 C 23,9 C 19,5 C 68 % 1021,7 hPa 0,0 l/m 2 min 0 min 904 W/m 9,7 km/h (2 Bft) 100,00 %
20.07.2021 12:14 20,1 C 23,9 C 20,0 C 66 % 1021,7 hPa 0,0 l/m 2 min 0 min 923 W/m 3,2 km/h (1 Bft) 100,00 %
20.07.2021 12:16 20,3 C 23,9 C 21,1 C 67 % 1021,6 hPa 0,0 l/m 2 min 0 min 945 W/m 3,2 km/h (1 Bft) 95,74 %
20.07.2021 12:18 20,5 C 23,9 C 21,7 C 67 % 1021,6 hPa 0,0 l/m 2 min 0 min 967 W/m 16,1 km/h (3 Bft) 97,83 %
20.07.2021 12:20 20,6 C 24,4 C 22,8 C 67 % 1021,6 hPa 0,0 l/m 2 min 0 min 985 W/m 19,3 km/h (3 Bft) 97,87 %
20.07.2021 12:22 20,9 C 25,0 C 23,9 C 67 % 1021,6 hPa 0,0 l/m 2 min 0 min 992 W/m 12,9 km/h (3 Bft) 97,87 %
20.07.2021 12:24 21,0 C 24,4 C 25,0 C 66 % 1021,6 hPa 0,0 l/m 2 min 0 min 998 W/m 16,1 km/h (3 Bft) 97,87 %
20.07.2021 12:26 21,2 C 24,4 C 26,1 C 65 % 1021,6 hPa 0,0 l/m 2 min 0 min 1022 W/m 16,1 km/h (3 Bft) 100,00 %
20.07.2021 12:28 21,3 C 24,4 C 26,7 C 64 % 1021,6 hPa 0,0 l/m 2 min 0 min 1033 W/m 9,7 km/h (2 Bft) 100,00 %
20.07.2021 12:30 21,5 C 25,0 C 27,3 C 66 % 1021,6 hPa 0,0 l/m 2 min 0 min 1059 W/m 9,7 km/h (2 Bft) 100,00 %
20.07.2021 12:32 21,6 C 25,0 C 25,6 C 64 % 1021,6 hPa 0,0 l/m 2 min 0 min 746 W/m 9,7 km/h (2 Bft) 97,83 %
20.07.2021 12:34 21,8 C 25,0 C 26,1 C 63 % 1021,6 hPa 0,0 l/m 2 min 0 min 533 W/m 9,7 km/h (2 Bft) 97,87 %
20.07.2021 12:36 21,8 C 25,0 C 26,1 C 63 % 1021,6 hPa 0,0 l/m 2 min 0 min 533 W/m 12,9 km/h (3 Bft) 97,87 %
20.07.2021 12:38 21,6 C 23,9 C 25,6 C 61 % 1021,6 hPa 0,0 l/m 2 min 0 min 480 W/m 9,7 km/h (2 Bft) 95,74 %
20.07.2021 12:40 21,5 C 23,3 C 23,4 C 61 % 1021,6 hPa 0,0 l/m 0 min 0 min 288 W/m 9,7 km/h (2 Bft) 95,74 %
20.07.2021 12:42 21,5 C 23,3 C 24,5 C 62 % 1021,5 hPa 0,0 l/m 0 min 0 min 355 W/m 3,2 km/h (1 Bft) 95,65 %
20.07.2021 12:44 21,6 C 23,9 C 25,6 C 63 % 1021,6 hPa 0,0 l/m 2 min 0 min 993 W/m 9,7 km/h (2 Bft) 93,62 %
20.07.2021 12:46 21,6 C 24,4 C 26,7 C 63 % 1021,6 hPa 0,0 l/m 2 min 0 min 1008 W/m 12,9 km/h (3 Bft) 91,49 %
20.07.2021 12:48 21,7 C 25,0 C 26,7 C 63 % 1021,6 hPa 0,0 l/m 2 min 0 min 1005 W/m 9,7 km/h (2 Bft) 91,49 %
20.07.2021 12:50 21,8 C 25,0 C 28,4 C 62 % 1021,5 hPa 0,0 l/m 2 min 0 min 1010 W/m 6,4 km/h (2 Bft) 93,62 %
20.07.2021 12:52 21,9 C 25,0 C 27,3 C 62 % 1021,6 hPa 0,0 l/m 2 min 0 min 1013 W/m 9,7 km/h (2 Bft) 95,74 %
20.07.2021 12:54 22,0 C 24,4 C 25,0 C 62 % 1021,5 hPa 0,0 l/m 2 min 0 min 488 W/m 12,9 km/h (3 Bft) 93,48 %
20.07.2021 12:56 22,0 C 24,4 C 25,6 C 61 % 1021,5 hPa 0,0 l/m 2 min 0 min 861 W/m 9,7 km/h (2 Bft) 95,74 %
20.07.2021 12:58 22,0 C 25,0 C 25,6 C 62 % 1021,5 hPa 0,0 l/m 2 min 0 min 1038 W/m 9,7 km/h (2 Bft) 95,74 %
20.07.2021 13:00 22,1 C 25,6 C 26,1 C 62 % 1021,5 hPa 0,0 l/m 2 min 0 min 1060 W/m 9,7 km/h (2 Bft) 93,62 %
20.07.2021 13:02 22,3 C 25,6 C 25,6 C 62 % 1021,5 hPa 0,0 l/m 2 min 0 min 1032 W/m 12,9 km/h (3 Bft) 95,74 %
20.07.2021 13:04 22,4 C 25,0 C 25,0 C 61 % 1021,5 hPa 0,0 l/m 2 min 0 min 916 W/m 12,9 km/h (3 Bft) 93,62 %
20.07.2021 13:06 22,4 C 24,4 C 23,9 C 61 % 1021,5 hPa 0,0 l/m 2 min 0 min 671 W/m 9,7 km/h (2 Bft) 93,48 %
20.07.2021 13:08 22,4 C 24,4 C 23,4 C 60 % 1021,5 hPa 0,0 l/m 2 min 0 min 473 W/m 6,4 km/h (2 Bft) 89,36 %
20.07.2021 13:10 22,4 C 24,4 C 23,9 C 62 % 1021,5 hPa 0,0 l/m 2 min 0 min 902 W/m 9,7 km/h (2 Bft) 93,62 %
20.07.2021 13:12 22,5 C 24,4 C 23,9 C 61 % 1021,4 hPa 0,0 l/m 2 min 0 min 981 W/m 9,7 km/h (2 Bft) 93,62 %
20.07.2021 13:14 22,5 C 25,0 C 23,9 C 60 % 1021,4 hPa 0,0 l/m 2 min 0 min 987 W/m 16,1 km/h (3 Bft) 93,62 %
20.07.2021 13:16 22,6 C 25,6 C 23,9 C 61 % 1021,4 hPa 0,0 l/m 2 min 0 min 1004 W/m 9,7 km/h (2 Bft) 93,62 %
20.07.2021 13:18 22,6 C 24,4 C 22,8 C 61 % 1021,4 hPa 0,0 l/m 2 min 0 min 883 W/m 12,9 km/h (3 Bft) 89,13 %
20.07.2021 13:20 22,5 C 23,3 C 21,1 C 61 % 1021,4 hPa 0,0 l/m 0 min 0 min 255 W/m 12,9 km/h (3 Bft) 95,74 %
20.07.2021 13:22 22,4 C 23,3 C 21,1 C 60 % 1021,4 hPa 0,0 l/m 0 min 0 min 224 W/m 9,7 km/h (2 Bft) 93,62 %
20.07.2021 13:24 22,3 C 23,3 C 21,1 C 61 % 1021,4 hPa 0,0 l/m 0 min 0 min 330 W/m 9,7 km/h (2 Bft) 91,49 %
20.07.2021 13:26 22,3 C 23,9 C 21,7 C 61 % 1021,4 hPa 0,0 l/m 2 min 0 min 940 W/m 12,9 km/h (3 Bft) 95,74 %
20.07.2021 13:28 22,2 C 24,4 C 22,3 C 61 % 1021,4 hPa 0,0 l/m 2 min 0 min 939 W/m 9,7 km/h (2 Bft) 95,74 %
20.07.2021 13:30 22,2 C 25,0 C 23,9 C 61 % 1021,4 hPa 0,0 l/m 2 min 0 min 945 W/m 6,4 km/h (2 Bft) 96,36 %
20.07.2021 13:32 22,3 C 25,0 C 24,5 C 61 % 1021,4 hPa 0,0 l/m 2 min 0 min 923 W/m 12,9 km/h (3 Bft) 93,62 %
20.07.2021 13:34 22,4 C 25,6 C 25,0 C 61 % 1021,4 hPa 0,0 l/m 2 min 0 min 914 W/m 12,9 km/h (3 Bft) 95,92 %
20.07.2021 13:36 22,5 C 25,6 C 26,1 C 61 % 1021,3 hPa 0,0 l/m 2 min 0 min 921 W/m 9,7 km/h (2 Bft) 97,87 %
20.07.2021 13:38 22,5 C 25,6 C 26,7 C 61 % 1021,4 hPa 0,0 l/m 2 min 0 min 930 W/m 9,7 km/h (2 Bft) 97,87 %
20.07.2021 13:40 22,5 C 25,6 C 27,3 C 59 % 1021,3 hPa 0,0 l/m 2 min 0 min 935 W/m 16,1 km/h (3 Bft) 97,87 %
20.07.2021 13:42 22,5 C 26,1 C 27,8 C 59 % 1021,3 hPa 0,0 l/m 2 min 0 min 932 W/m 12,9 km/h (3 Bft) 97,87 %
20.07.2021 13:44 22,5 C 25,6 C 27,8 C 58 % 1021,3 hPa 0,0 l/m 2 min 0 min 955 W/m 9,7 km/h (2 Bft) 97,83 %
20.07.2021 13:46 22,6 C 26,1 C 27,8 C 59 % 1021,3 hPa 0,0 l/m 2 min 0 min 968 W/m 9,7 km/h (2 Bft) 97,87 %
20.07.2021 13:48 22,8 C 26,7 C 27,8 C 61 % 1021,3 hPa 0,0 l/m 2 min 0 min 974 W/m 12,9 km/h (3 Bft) 100,00 %
20.07.2021 13:50 22,8 C 26,1 C 27,8 C 59 % 1021,3 hPa 0,0 l/m 2 min 0 min 963 W/m 16,1 km/h (3 Bft) 97,87 %
20.07.2021 13:52 22,9 C 25,6 C 31,7 C 58 % 1021,3 hPa 0,0 l/m 2 min 0 min 954 W/m 12,9 km/h (3 Bft) 97,87 %
20.07.2021 13:54 22,8 C 25,6 C 31,1 C 58 % 1021,3 hPa 0,0 l/m 2 min 0 min 936 W/m 12,9 km/h (3 Bft) 97,87 %
20.07.2021 13:56 22,9 C 25,6 C 30,6 C 59 % 1021,3 hPa 0,0 l/m 2 min 0 min 928 W/m 6,4 km/h (2 Bft) 97,83 %
20.07.2021 13:58 22,9 C 26,1 C 27,8 C 60 % 1021,3 hPa 0,0 l/m 2 min 0 min 924 W/m 16,1 km/h (3 Bft) 97,87 %
20.07.2021 14:00 23,0 C 26,1 C 26,1 C 59 % 1021,3 hPa 0,0 l/m 2 min 0 min 926 W/m 12,9 km/h (3 Bft) 97,87 %
20.07.2021 14:02 23,0 C 26,1 C 25,0 C 58 % 1021,3 hPa 0,0 l/m 2 min 0 min 912 W/m 16,1 km/h (3 Bft) 91,49 %
20.07.2021 14:04 23,0 C 26,1 C 23,9 C 58 % 1021,3 hPa 0,0 l/m 2 min 0 min 932 W/m 12,9 km/h (3 Bft) 100,00 %
20.07.2021 14:06 23,1 C 26,1 C 22,8 C 59 % 1021,3 hPa 0,0 l/m 2 min 0 min 917 W/m 9,7 km/h (2 Bft) 100,00 %
20.07.2021 14:08 23,1 C 26,1 C 22,3 C 59 % 1021,3 hPa 0,0 l/m 2 min 0 min 926 W/m 12,9 km/h (3 Bft) 100,00 %
20.07.2021 14:10 23,1 C 26,7 C 21,7 C 58 % 1021,3 hPa 0,0 l/m 2 min 0 min 923 W/m 9,7 km/h (2 Bft) 100,00 %
20.07.2021 14:12 23,1 C 26,7 C 21,7 C 58 % 1021,4 hPa 0,0 l/m 2 min 0 min 914 W/m 22,5 km/h (4 Bft) 100,00 %
20.07.2021 14:14 23,2 C 26,7 C 21,7 C 58 % 1021,3 hPa 0,0 l/m 2 min 0 min 913 W/m 16,1 km/h (3 Bft) 100,00 %
20.07.2021 14:16 23,3 C 26,1 C 21,1 C 57 % 1021,3 hPa 0,0 l/m 2 min 0 min 920 W/m 19,3 km/h (3 Bft) 100,00 %
20.07.2021 14:18 23,3 C 26,1 C 21,1 C 56 % 1021,3 hPa 0,0 l/m 2 min 0 min 933 W/m 6,4 km/h (2 Bft) 100,00 %
20.07.2021 14:20 23,3 C 26,7 C 21,1 C 57 % 1021,3 hPa 0,0 l/m 2 min 0 min 938 W/m 9,7 km/h (2 Bft) 100,00 %
20.07.2021 14:22 23,4 C 27,2 C 21,1 C 58 % 1021,2 hPa 0,0 l/m 2 min 0 min 915 W/m 19,3 km/h (3 Bft) 100,00 %
20.07.2021 14:24 23,4 C 26,7 C 21,1 C 56 % 1021,2 hPa 0,0 l/m 2 min 0 min 923 W/m 19,3 km/h (3 Bft) 97,87 %
20.07.2021 14:26 23,4 C 26,1 C 21,1 C 57 % 1021,3 hPa 0,0 l/m 2 min 0 min 923 W/m 12,9 km/h (3 Bft) 100,00 %
20.07.2021 14:28 23,5 C 26,7 C 21,1 C 57 % 1021,2 hPa 0,0 l/m 2 min 0 min 915 W/m 9,7 km/h (2 Bft) 100,00 %
20.07.2021 14:30 23,5 C 26,7 C 21,1 C 57 % 1021,2 hPa 0,0 l/m 2 min 0 min 919 W/m 19,3 km/h (3 Bft) 100,00 %
20.07.2021 14:32 23,5 C 26,7 C 20,6 C 56 % 1021,2 hPa 0,0 l/m 2 min 0 min 925 W/m 12,9 km/h (3 Bft) 100,00 %
20.07.2021 14:34 23,5 C 27,2 C 21,1 C 56 % 1021,2 hPa 0,0 l/m 2 min 0 min 916 W/m 9,7 km/h (2 Bft) 100,00 %
20.07.2021 14:36 23,5 C 27,2 C 20,6 C 56 % 1021,1 hPa 0,0 l/m 2 min 0 min 922 W/m 9,7 km/h (2 Bft) 100,00 %
20.07.2021 14:38 23,5 C 26,7 C 20,6 C 56 % 1021,1 hPa 0,0 l/m 2 min 0 min 920 W/m 19,3 km/h (3 Bft) 100,00 %
20.07.2021 14:40 23,4 C 26,7 C 20,6 C 56 % 1021,2 hPa 0,0 l/m 2 min 0 min 914 W/m 12,9 km/h (3 Bft) 100,00 %
20.07.2021 14:42 23,4 C 27,2 C 20,0 C 56 % 1021,1 hPa 0,0 l/m 2 min 0 min 913 W/m 3,2 km/h (1 Bft) 100,00 %
20.07.2021 14:44 23,4 C 26,7 C 20,0 C 56 % 1021,1 hPa 0,0 l/m 2 min 0 min 912 W/m 16,1 km/h (3 Bft) 100,00 %
20.07.2021 14:46 23,4 C 26,7 C 20,6 C 56 % 1021,1 hPa 0,0 l/m 2 min 0 min 910 W/m 9,7 km/h (2 Bft) 100,00 %
20.07.2021 14:48 23,5 C 27,2 C 20,6 C 57 % 1021,1 hPa 0,0 l/m 2 min 0 min 899 W/m 12,9 km/h (3 Bft) 100,00 %
20.07.2021 14:50 23,5 C 27,2 C 20,6 C 56 % 1021,1 hPa 0,0 l/m 2 min 0 min 909 W/m 16,1 km/h (3 Bft) 100,00 %
20.07.2021 14:52 23,5 C 26,7 C 20,6 C 55 % 1021,1 hPa 0,0 l/m 2 min 0 min 907 W/m 16,1 km/h (3 Bft) 97,87 %
20.07.2021 14:54 23,4 C 26,1 C 20,6 C 55 % 1021,2 hPa 0,0 l/m 2 min 0 min 869 W/m 16,1 km/h (3 Bft) 100,00 %
20.07.2021 14:56 23,4 C 26,1 C 20,6 C 55 % 1021,1 hPa 0,0 l/m 2 min 0 min 864 W/m 6,4 km/h (2 Bft) 100,00 %
20.07.2021 14:58 23,5 C 26,1 C 20,6 C 55 % 1021,0 hPa 0,0 l/m 2 min 0 min 876 W/m 6,4 km/h (2 Bft) 100,00 %
20.07.2021 15:00 23,5 C 26,7 C 20,6 C 56 % 1021,0 hPa 0,0 l/m 2 min 0 min 885 W/m 9,7 km/h (2 Bft) 100,00 %
20.07.2021 15:02 23,6 C 26,7 C 20,6 C 55 % 1021,1 hPa 0,0 l/m 2 min 0 min 883 W/m 19,3 km/h (3 Bft) 100,00 %
20.07.2021 15:04 23,6 C 26,7 C 21,1 C 55 % 1021,1 hPa 0,0 l/m 2 min 0 min 876 W/m 16,1 km/h (3 Bft) 100,00 %
20.07.2021 15:06 23,6 C 26,7 C 20,6 C 56 % 1021,1 hPa 0,0 l/m 2 min 0 min 872 W/m 9,7 km/h (2 Bft) 100,00 %
20.07.2021 15:08 23,8 C 26,1 C 20,6 C 55 % 1021,1 hPa 0,0 l/m 2 min 0 min 861 W/m 16,1 km/h (3 Bft) 100,00 %
20.07.2021 15:10 23,8 C 27,2 C 20,6 C 55 % 1021,0 hPa 0,0 l/m 2 min 0 min 862 W/m 6,4 km/h (2 Bft) 100,00 %
20.07.2021 15:12 23,9 C 27,8 C 21,1 C 56 % 1021,0 hPa 0,0 l/m 2 min 0 min 861 W/m 9,7 km/h (2 Bft) 100,00 %
20.07.2021 15:14 24,0 C 27,2 C 21,1 C 54 % 1021,0 hPa 0,0 l/m 2 min 0 min 857 W/m 9,7 km/h (2 Bft) 100,00 %
20.07.2021 15:16 24,0 C 27,2 C 20,6 C 55 % 1021,0 hPa 0,0 l/m 2 min 0 min 856 W/m 12,9 km/h (3 Bft) 100,00 %
20.07.2021 15:18 24,1 C 27,2 C 20,6 C 56 % 1021,0 hPa 0,0 l/m 2 min 0 min 845 W/m 12,9 km/h (3 Bft) 95,74 %
20.07.2021 15:20 24,1 C 27,2 C 21,1 C 56 % 1021,1 hPa 0,0 l/m 2 min 0 min 837 W/m 12,9 km/h (3 Bft) 95,74 %
20.07.2021 15:22 24,2 C 27,8 C 21,1 C 56 % 1021,1 hPa 0,0 l/m 2 min 0 min 825 W/m 22,5 km/h (4 Bft) 97,87 %
20.07.2021 15:24 24,2 C 26,7 C 21,1 C 54 % 1021,1 hPa 0,0 l/m 2 min 0 min 820 W/m 19,3 km/h (3 Bft) 97,83 %
20.07.2021 15:26 24,1 C 27,2 C 21,1 C 56 % 1021,1 hPa 0,0 l/m 2 min 0 min 828 W/m 12,9 km/h (3 Bft) 97,87 %
20.07.2021 15:28 24,1 C 26,7 C 20,6 C 56 % 1021,0 hPa 0,0 l/m 2 min 0 min 830 W/m 12,9 km/h (3 Bft) 97,87 %
20.07.2021 15:30 24,1 C 27,2 C 21,1 C 57 % 1021,0 hPa 0,0 l/m 2 min 0 min 823 W/m 9,7 km/h (2 Bft) 100,00 %
20.07.2021 15:32 24,1 C 27,8 C 21,1 C 57 % 1021,0 hPa 0,0 l/m 2 min 0 min 821 W/m 9,7 km/h (2 Bft) 97,87 %
20.07.2021 15:34 24,2 C 27,2 C 21,1 C 55 % 1021,1 hPa 0,0 l/m 2 min 0 min 818 W/m 12,9 km/h (3 Bft) 95,74 %
20.07.2021 15:36 24,3 C 27,2 C 21,1 C 57 % 1021,1 hPa 0,0 l/m 2 min 0 min 817 W/m 9,7 km/h (2 Bft) 97,83 %
20.07.2021 15:38 24,3 C 27,8 C 21,7 C 55 % 1021,0 hPa 0,0 l/m 2 min 0 min 819 W/m 9,7 km/h (2 Bft) 97,87 %
20.07.2021 15:40 24,4 C 28,3 C 21,7 C 56 % 1021,0 hPa 0,0 l/m 2 min 0 min 813 W/m 9,7 km/h (2 Bft) 97,87 %
20.07.2021 15:42 24,5 C 28,3 C 21,7 C 55 % 1021,0 hPa 0,0 l/m 2 min 0 min 816 W/m 12,9 km/h (3 Bft) 97,87 %
20.07.2021 15:44 24,5 C 27,8 C 22,3 C 54 % 1021,0 hPa 0,0 l/m 2 min 0 min 816 W/m 19,3 km/h (3 Bft) 95,74 %
20.07.2021 15:46 24,4 C 27,8 C 21,7 C 54 % 1021,0 hPa 0,0 l/m 2 min 0 min 804 W/m 6,4 km/h (2 Bft) 93,62 %
20.07.2021 15:48 24,3 C 27,2 C 21,7 C 55 % 1021,0 hPa 0,0 l/m 2 min 0 min 805 W/m 19,3 km/h (3 Bft) 97,87 %
20.07.2021 15:50 24,4 C 27,2 C 21,7 C 55 % 1021,0 hPa 0,0 l/m 2 min 0 min 803 W/m 9,7 km/h (2 Bft) 95,65 %
20.07.2021 15:52 24,3 C 27,2 C 21,1 C 55 % 1021,1 hPa 0,0 l/m 2 min 0 min 791 W/m 9,7 km/h (2 Bft) 95,74 %
20.07.2021 15:54 24,3 C 27,2 C 21,1 C 53 % 1021,0 hPa 0,0 l/m 2 min 0 min 789 W/m 9,7 km/h (2 Bft) 95,74 %
20.07.2021 15:56 24,1 C 27,2 C 21,1 C 53 % 1021,1 hPa 0,0 l/m 2 min 0 min 792 W/m 12,9 km/h (3 Bft) 95,74 %
20.07.2021 15:58 24,0 C 27,2 C 21,1 C 54 % 1021,0 hPa 0,0 l/m 2 min 0 min 788 W/m 12,9 km/h (3 Bft) 97,87 %
20.07.2021 16:00 24,0 C 27,8 C 21,1 C 56 % 1021,0 hPa 0,0 l/m 2 min 0 min 781 W/m 12,9 km/h (3 Bft) 97,83 %
20.07.2021 16:02 24,0 C 28,3 C 21,7 C 55 % 1021,0 hPa 0,0 l/m 2 min 0 min 780 W/m 16,1 km/h (3 Bft) 97,87 %
20.07.2021 16:04 24,0 C 28,3 C 21,7 C 55 % 1021,0 hPa 0,0 l/m 2 min 0 min 773 W/m 9,7 km/h (2 Bft) 95,83 %
20.07.2021 16:06 24,1 C 28,3 C 21,7 C 56 % 1021,0 hPa 0,0 l/m 2 min 0 min 772 W/m 19,3 km/h (3 Bft) 95,65 %
20.07.2021 16:08 24,0 C 28,9 C 21,7 C 56 % 1021,0 hPa 0,0 l/m 2 min 0 min 771 W/m 12,9 km/h (3 Bft) 95,74 %
20.07.2021 16:10 24,1 C 28,3 C 21,1 C 56 % 1021,0 hPa 0,0 l/m 2 min 0 min 759 W/m 9,7 km/h (2 Bft) 95,74 %
20.07.2021 16:12 24,2 C 28,3 C 21,1 C 56 % 1021,0 hPa 0,0 l/m 2 min 0 min 758 W/m 12,9 km/h (3 Bft) 95,74 %
20.07.2021 16:14 24,3 C 28,3 C 21,7 C 56 % 1021,0 hPa 0,0 l/m 2 min 0 min 750 W/m 9,7 km/h (2 Bft) 95,74 %
20.07.2021 16:16 24,3 C 28,3 C 21,7 C 55 % 1021,0 hPa 0,0 l/m 2 min 0 min 749 W/m 25,7 km/h (4 Bft) 93,62 %
20.07.2021 16:18 24,3 C 28,9 C 21,7 C 56 % 1020,9 hPa 0,0 l/m 2 min 0 min 749 W/m 9,7 km/h (2 Bft) 95,65 %
20.07.2021 16:20 24,3 C 28,3 C 21,7 C 55 % 1021,0 hPa 0,0 l/m 2 min 0 min 748 W/m 16,1 km/h (3 Bft) 95,74 %
20.07.2021 16:22 24,3 C 28,3 C 21,7 C 56 % 1020,9 hPa 0,0 l/m 2 min 0 min 743 W/m 12,9 km/h (3 Bft) 95,74 %
20.07.2021 16:24 24,4 C 29,4 C 21,7 C 56 % 1021,0 hPa 0,0 l/m 2 min 0 min 737 W/m 6,4 km/h (2 Bft) 95,74 %
20.07.2021 16:26 24,4 C 28,9 C 21,7 C 55 % 1021,0 hPa 0,0 l/m 2 min 0 min 736 W/m 12,9 km/h (3 Bft) 95,74 %
20.07.2021 16:28 24,5 C 29,4 C 21,7 C 55 % 1021,0 hPa 0,0 l/m 2 min 0 min 735 W/m 19,3 km/h (3 Bft) 95,74 %
20.07.2021 16:30 24,5 C 28,9 C 21,7 C 54 % 1020,9 hPa 0,0 l/m 2 min 0 min 729 W/m 22,5 km/h (4 Bft) 95,65 %
20.07.2021 16:32 24,5 C 28,9 C 21,7 C 55 % 1020,9 hPa 0,0 l/m 2 min 0 min 723 W/m 9,7 km/h (2 Bft) 93,62 %
20.07.2021 16:34 24,5 C 28,9 C 21,7 C 54 % 1020,9 hPa 0,0 l/m 2 min 0 min 709 W/m 22,5 km/h (4 Bft) 95,74 %
20.07.2021 16:36 24,4 C 28,9 C 21,7 C 54 % 1020,9 hPa 0,0 l/m 2 min 0 min 707 W/m 12,9 km/h (3 Bft) 95,74 %
20.07.2021 16:38 24,3 C 28,3 C 21,7 C 54 % 1020,9 hPa 0,0 l/m 2 min 0 min 700 W/m 22,5 km/h (4 Bft) 95,74 %
20.07.2021 16:40 24,3 C 28,3 C 21,7 C 54 % 1020,9 hPa 0,0 l/m 2 min 0 min 700 W/m 19,3 km/h (3 Bft) 95,74 %
20.07.2021 16:42 24,3 C 28,3 C 21,7 C 54 % 1020,9 hPa 0,0 l/m 2 min 0 min 693 W/m 19,3 km/h (3 Bft) 95,65 %
20.07.2021 16:44 24,2 C 28,3 C 21,7 C 55 % 1020,9 hPa 0,0 l/m 2 min 0 min 688 W/m 19,3 km/h (3 Bft) 93,62 %
20.07.2021 16:46 24,2 C 28,9 C 21,7 C 56 % 1020,9 hPa 0,0 l/m 2 min 0 min 679 W/m 19,3 km/h (3 Bft) 95,74 %
20.07.2021 16:48 24,3 C 30,0 C 21,7 C 57 % 1020,9 hPa 0,0 l/m 2 min 0 min 694 W/m 9,7 km/h (2 Bft) 93,62 %
20.07.2021 16:50 24,4 C 30,6 C 22,3 C 57 % 1020,8 hPa 0,0 l/m 2 min 0 min 695 W/m 16,1 km/h (3 Bft) 97,87 %
20.07.2021 16:52 24,4 C 30,0 C 21,7 C 54 % 1020,8 hPa 0,0 l/m 2 min 0 min 694 W/m 16,1 km/h (3 Bft) 97,87 %
20.07.2021 16:54 24,4 C 30,0 C 21,7 C 54 % 1020,8 hPa 0,0 l/m 2 min 0 min 693 W/m 9,7 km/h (2 Bft) 97,83 %
20.07.2021 16:56 24,4 C 30,0 C 22,3 C 54 % 1020,9 hPa 0,0 l/m 2 min 0 min 691 W/m 12,9 km/h (3 Bft) 100,00 %
20.07.2021 16:58 24,4 C 30,0 C 22,3 C 55 % 1020,8 hPa 0,0 l/m 2 min 0 min 686 W/m 16,1 km/h (3 Bft) 97,87 %
20.07.2021 17:00 24,5 C 30,6 C 22,3 C 55 % 1020,8 hPa 0,0 l/m 2 min 0 min 677 W/m 12,9 km/h (3 Bft) 100,00 %
20.07.2021 17:02 24,5 C 30,6 C 22,3 C 55 % 1020,8 hPa 0,0 l/m 2 min 0 min 677 W/m 16,1 km/h (3 Bft) 97,87 %
20.07.2021 17:04 24,5 C 30,6 C 22,3 C 56 % 1020,8 hPa 0,0 l/m 2 min 0 min 671 W/m 12,9 km/h (3 Bft) 97,87 %
20.07.2021 17:06 24,5 C 30,6 C 22,3 C 55 % 1020,8 hPa 0,0 l/m 2 min 0 min 665 W/m 9,7 km/h (2 Bft) 100,00 %
20.07.2021 17:08 24,5 C 30,6 C 22,3 C 54 % 1020,8 hPa 0,0 l/m 2 min 0 min 669 W/m 9,7 km/h (2 Bft) 100,00 %
20.07.2021 17:10 24,6 C 31,1 C 22,8 C 56 % 1020,8 hPa 0,0 l/m 2 min 0 min 669 W/m 12,9 km/h (3 Bft) 100,00 %
20.07.2021 17:12 24,6 C 30,0 C 22,3 C 54 % 1020,8 hPa 0,0 l/m 2 min 0 min 657 W/m 16,1 km/h (3 Bft) 100,00 %
20.07.2021 17:14 24,6 C 29,4 C 22,3 C 53 % 1020,8 hPa 0,0 l/m 2 min 0 min 651 W/m 19,3 km/h (3 Bft) 100,00 %
20.07.2021 17:16 24,5 C 30,0 C 22,3 C 53 % 1020,7 hPa 0,0 l/m 2 min 0 min 645 W/m 12,9 km/h (3 Bft) 100,00 %
20.07.2021 17:18 24,5 C 30,0 C 22,3 C 54 % 1020,7 hPa 0,0 l/m 2 min 0 min 630 W/m 19,3 km/h (3 Bft) 97,87 %
20.07.2021 17:20 24,5 C 29,4 C 22,3 C 54 % 1020,8 hPa 0,0 l/m 2 min 0 min 623 W/m 12,9 km/h (3 Bft) 95,74 %
20.07.2021 17:22 24,4 C 29,4 C 22,3 C 54 % 1020,7 hPa 0,0 l/m 2 min 0 min 617 W/m 12,9 km/h (3 Bft) 97,83 %
20.07.2021 17:24 24,4 C 28,9 C 21,7 C 55 % 1020,8 hPa 0,0 l/m 2 min 0 min 613 W/m 25,7 km/h (4 Bft) 100,00 %
20.07.2021 17:26 24,4 C 29,4 C 22,3 C 55 % 1020,8 hPa 0,0 l/m 2 min 0 min 606 W/m 12,9 km/h (3 Bft) 100,00 %
20.07.2021 17:28 24,5 C 30,0 C 22,3 C 56 % 1020,8 hPa 0,0 l/m 2 min 0 min 598 W/m 16,1 km/h (3 Bft) 100,00 %
20.07.2021 17:30 24,6 C 29,4 C 21,7 C 54 % 1020,8 hPa 0,0 l/m 2 min 0 min 594 W/m 22,5 km/h (4 Bft) 100,00 %
20.07.2021 17:32 24,6 C 29,4 C 22,3 C 54 % 1020,8 hPa 0,0 l/m 2 min 0 min 596 W/m 19,3 km/h (3 Bft) 100,00 %
20.07.2021 17:34 24,5 C 28,9 C 21,7 C 53 % 1020,7 hPa 0,0 l/m 2 min 0 min 588 W/m 9,7 km/h (2 Bft) 97,83 %
20.07.2021 17:36 24,4 C 28,9 C 21,7 C 54 % 1020,7 hPa 0,0 l/m 2 min 0 min 583 W/m 12,9 km/h (3 Bft) 100,00 %
20.07.2021 17:38 24,4 C 28,9 C 21,7 C 54 % 1020,7 hPa 0,0 l/m 2 min 0 min 577 W/m 12,9 km/h (3 Bft) 100,00 %
20.07.2021 17:40 24,3 C 28,9 C 21,7 C 55 % 1020,7 hPa 0,0 l/m 2 min 0 min 575 W/m 9,7 km/h (2 Bft) 100,00 %
20.07.2021 17:42 24,4 C 29,4 C 21,7 C 56 % 1020,8 hPa 0,0 l/m 2 min 0 min 576 W/m 12,9 km/h (3 Bft) 100,00 %
20.07.2021 17:44 24,3 C 29,4 C 21,7 C 55 % 1020,8 hPa 0,0 l/m 2 min 0 min 573 W/m 6,4 km/h (2 Bft) 100,00 %
20.07.2021 17:46 24,4 C 30,0 C 22,3 C 55 % 1020,7 hPa 0,0 l/m 2 min 0 min 560 W/m 12,9 km/h (3 Bft) 95,65 %
20.07.2021 17:48 24,4 C 30,0 C 22,3 C 55 % 1020,8 hPa 0,0 l/m 2 min 0 min 548 W/m 12,9 km/h (3 Bft) 97,87 %
20.07.2021 17:50 24,5 C 29,4 C 22,3 C 55 % 1020,8 hPa 0,0 l/m 2 min 0 min 541 W/m 12,9 km/h (3 Bft) 97,87 %
20.07.2021 17:52 24,5 C 30,0 C 22,3 C 55 % 1020,8 hPa 0,0 l/m 2 min 0 min 535 W/m 9,7 km/h (2 Bft) 95,74 %
20.07.2021 17:54 24,6 C 30,0 C 22,8 C 55 % 1020,8 hPa 0,0 l/m 2 min 0 min 533 W/m 16,1 km/h (3 Bft) 97,87 %
20.07.2021 17:56 24,6 C 30,0 C 22,3 C 53 % 1020,8 hPa 0,0 l/m 2 min 0 min 527 W/m 12,9 km/h (3 Bft) 97,87 %
20.07.2021 17:58 24,7 C 30,6 C 22,3 C 55 % 1020,8 hPa 0,0 l/m 2 min 0 min 516 W/m 6,4 km/h (2 Bft) 97,83 %
20.07.2021 18:00 24,7 C 29,4 C 21,7 C 54 % 1020,8 hPa 0,0 l/m 2 min 0 min 506 W/m 12,9 km/h (3 Bft) 97,87 %
20.07.2021 18:02 24,5 C 28,9 C 21,7 C 55 % 1020,8 hPa 0,0 l/m 2 min 0 min 502 W/m 12,9 km/h (3 Bft) 95,74 %
20.07.2021 18:04 24,5 C 29,4 C 22,3 C 56 % 1020,8 hPa 0,0 l/m 2 min 0 min 503 W/m 16,1 km/h (3 Bft) 95,74 %
20.07.2021 18:08 24,5 C 29,4 C 21,7 C 55 % 1020,8 hPa 0,0 l/m 4 min 0 min 493 W/m 16,1 km/h (3 Bft) 97,56 %
20.07.2021 18:10 24,4 C 28,9 C 21,7 C 55 % 1020,9 hPa 0,0 l/m 2 min 0 min 483 W/m 12,9 km/h (3 Bft) 95,74 %
20.07.2021 18:12 24,3 C 28,9 C 21,7 C 55 % 1020,8 hPa 0,0 l/m 2 min 0 min 479 W/m 9,7 km/h (2 Bft) 97,83 %
20.07.2021 18:14 24,2 C 29,4 C 21,7 C 56 % 1020,8 hPa 0,0 l/m 2 min 0 min 472 W/m 9,7 km/h (2 Bft) 97,87 %
20.07.2021 18:16 24,3 C 28,9 C 21,7 C 56 % 1020,8 hPa 0,0 l/m 2 min 0 min 463 W/m 9,7 km/h (2 Bft) 95,74 %
20.07.2021 18:18 24,4 C 29,4 C 21,7 C 56 % 1020,8 hPa 0,0 l/m 2 min 0 min 452 W/m 9,7 km/h (2 Bft) 97,87 %
20.07.2021 18:20 24,5 C 30,0 C 22,3 C 56 % 1020,8 hPa 0,0 l/m 2 min 0 min 448 W/m 9,7 km/h (2 Bft) 97,87 %
20.07.2021 18:22 24,5 C 29,4 C 21,7 C 54 % 1020,8 hPa 0,0 l/m 2 min 0 min 445 W/m 19,3 km/h (3 Bft) 97,87 %
20.07.2021 18:24 24,5 C 29,4 C 22,3 C 56 % 1020,8 hPa 0,0 l/m 2 min 0 min 438 W/m 16,1 km/h (3 Bft) 97,83 %
20.07.2021 18:26 24,5 C 28,9 C 21,7 C 54 % 1020,7 hPa 0,0 l/m 2 min 0 min 434 W/m 16,1 km/h (3 Bft) 97,87 %
20.07.2021 18:28 24,4 C 28,9 C 21,7 C 54 % 1020,8 hPa 0,0 l/m 2 min 0 min 430 W/m 25,7 km/h (4 Bft) 100,00 %
20.07.2021 18:30 24,4 C 28,9 C 21,7 C 56 % 1020,8 hPa 0,0 l/m 2 min 0 min 422 W/m 16,1 km/h (3 Bft) 100,00 %
20.07.2021 18:32 24,2 C 28,3 C 21,7 C 56 % 1020,8 hPa 0,0 l/m 2 min 0 min 416 W/m 19,3 km/h (3 Bft) 97,87 %
20.07.2021 18:34 24,1 C 27,8 C 21,1 C 55 % 1020,8 hPa 0,0 l/m 2 min 0 min 408 W/m 12,9 km/h (3 Bft) 100,00 %
20.07.2021 18:36 24,0 C 28,3 C 21,7 C 56 % 1020,8 hPa 0,0 l/m 2 min 0 min 399 W/m 16,1 km/h (3 Bft) 100,00 %
20.07.2021 18:38 24,0 C 28,3 C 21,1 C 56 % 1020,8 hPa 0,0 l/m 2 min 0 min 394 W/m 12,9 km/h (3 Bft) 100,00 %
20.07.2021 18:40 24,0 C 28,3 C 21,7 C 57 % 1020,8 hPa 0,0 l/m 2 min 0 min 386 W/m 12,9 km/h (3 Bft) 100,00 %
20.07.2021 18:42 23,9 C 27,8 C 21,1 C 56 % 1020,8 hPa 0,0 l/m 2 min 0 min 382 W/m 19,3 km/h (3 Bft) 100,00 %
20.07.2021 18:44 23,8 C 27,8 C 21,1 C 55 % 1020,8 hPa 0,0 l/m 2 min 0 min 376 W/m 12,9 km/h (3 Bft) 100,00 %
20.07.2021 18:46 23,8 C 27,8 C 21,1 C 56 % 1020,8 hPa 0,0 l/m 2 min 0 min 371 W/m 12,9 km/h (3 Bft) 100,00 %
20.07.2021 18:48 23,6 C 27,8 C 21,1 C 57 % 1020,8 hPa 0,0 l/m 2 min 0 min 366 W/m 9,7 km/h (2 Bft) 100,00 %
20.07.2021 18:50 23,6 C 27,8 C 21,1 C 57 % 1020,8 hPa 0,0 l/m 2 min 0 min 361 W/m 12,9 km/h (3 Bft) 95,74 %
20.07.2021 18:52 23,5 C 27,8 C 21,1 C 57 % 1020,8 hPa 0,0 l/m 2 min 0 min 359 W/m 12,9 km/h (3 Bft) 100,00 %
20.07.2021 18:54 23,5 C 28,3 C 21,1 C 57 % 1020,8 hPa 0,0 l/m 2 min 0 min 353 W/m 12,9 km/h (3 Bft) 100,00 %
20.07.2021 18:56 23,5 C 27,8 C 21,1 C 56 % 1020,8 hPa 0,0 l/m 2 min 0 min 347 W/m 9,7 km/h (2 Bft) 100,00 %
20.07.2021 18:58 23,6 C 28,3 C 21,1 C 57 % 1020,8 hPa 0,0 l/m 2 min 0 min 339 W/m 12,9 km/h (3 Bft) 97,87 %
20.07.2021 19:00 23,8 C 28,3 C 21,7 C 56 % 1020,8 hPa 0,0 l/m 2 min 0 min 332 W/m 16,1 km/h (3 Bft) 97,83 %
20.07.2021 19:02 23,9 C 28,3 C 21,1 C 57 % 1020,8 hPa 0,0 l/m 2 min 0 min 328 W/m 6,4 km/h (2 Bft) 100,00 %
20.07.2021 19:04 23,9 C 27,8 C 20,0 C 56 % 1020,8 hPa 0,0 l/m 2 min 0 min 324 W/m 12,9 km/h (3 Bft) 100,00 %
20.07.2021 19:06 23,9 C 27,2 C 20,0 C 56 % 1020,8 hPa 0,0 l/m 2 min 0 min 318 W/m 6,4 km/h (2 Bft) 100,00 %
20.07.2021 19:08 23,9 C 27,8 C 20,0 C 57 % 1020,8 hPa 0,0 l/m 2 min 0 min 311 W/m 19,3 km/h (3 Bft) 100,00 %
20.07.2021 19:10 23,9 C 27,2 C 20,0 C 56 % 1020,7 hPa 0,0 l/m 2 min 0 min 305 W/m 9,7 km/h (2 Bft) 97,87 %
20.07.2021 19:12 23,9 C 26,7 C 20,0 C 56 % 1020,7 hPa 0,0 l/m 2 min 0 min 299 W/m 19,3 km/h (3 Bft) 97,83 %
20.07.2021 19:14 23,8 C 26,7 C 20,0 C 57 % 1020,7 hPa 0,0 l/m 2 min 0 min 290 W/m 9,7 km/h (2 Bft) 97,87 %
20.07.2021 19:16 23,8 C 26,7 C 20,0 C 57 % 1020,8 hPa 0,0 l/m 2 min 0 min 282 W/m 12,9 km/h (3 Bft) 97,87 %
20.07.2021 19:18 23,8 C 26,1 C 20,0 C 58 % 1020,8 hPa 0,0 l/m 2 min 0 min 277 W/m 16,1 km/h (3 Bft) 95,74 %
20.07.2021 19:20 23,7 C 26,1 C 19,5 C 57 % 1020,8 hPa 0,0 l/m 2 min 0 min 270 W/m 12,9 km/h (3 Bft) 93,62 %
20.07.2021 19:22 23,6 C 25,6 C 19,5 C 58 % 1020,8 hPa 0,0 l/m 2 min 0 min 266 W/m 12,9 km/h (3 Bft) 93,62 %
20.07.2021 19:24 23,5 C 24,4 C 19,5 C 57 % 1020,8 hPa 0,0 l/m 2 min 0 min 261 W/m 6,4 km/h (2 Bft) 95,65 %
20.07.2021 19:26 23,4 C 23,3 C 19,5 C 57 % 1020,8 hPa 0,0 l/m 2 min 0 min 253 W/m 19,3 km/h (3 Bft) 93,62 %
20.07.2021 19:28 23,3 C 23,3 C 19,5 C 57 % 1020,8 hPa 0,0 l/m 2 min 0 min 245 W/m 12,9 km/h (3 Bft) 93,62 %
20.07.2021 19:30 23,3 C 22,8 C 19,5 C 57 % 1020,8 hPa 0,0 l/m 2 min 0 min 239 W/m 6,4 km/h (2 Bft) 95,74 %
20.07.2021 19:32 23,1 C 22,8 C 19,5 C 59 % 1020,8 hPa 0,0 l/m 2 min 0 min 231 W/m 6,4 km/h (2 Bft) 93,62 %
20.07.2021 19:34 23,0 C 22,8 C 19,5 C 58 % 1020,8 hPa 0,0 l/m 2 min 0 min 225 W/m 16,1 km/h (3 Bft) 95,74 %
20.07.2021 19:36 22,9 C 22,2 C 18,9 C 58 % 1020,8 hPa 0,0 l/m 2 min 0 min 219 W/m 6,4 km/h (2 Bft) 95,65 %
20.07.2021 19:38 22,8 C 22,2 C 18,9 C 59 % 1020,8 hPa 0,0 l/m 2 min 0 min 212 W/m 12,9 km/h (3 Bft) 95,74 %
20.07.2021 19:40 22,7 C 22,2 C 18,9 C 58 % 1020,8 hPa 0,0 l/m 2 min 0 min 207 W/m 3,2 km/h (1 Bft) 93,62 %
20.07.2021 19:42 22,6 C 22,2 C 18,9 C 59 % 1020,9 hPa 0,0 l/m 2 min 0 min 201 W/m 6,4 km/h (2 Bft) 95,74 %
20.07.2021 19:44 22,6 C 22,2 C 18,9 C 59 % 1020,9 hPa 0,0 l/m 2 min 0 min 196 W/m 9,7 km/h (2 Bft) 97,83 %
20.07.2021 19:46 22,5 C 22,2 C 18,9 C 60 % 1020,9 hPa 0,0 l/m 2 min 0 min 178 W/m 6,4 km/h (2 Bft) 95,65 %
20.07.2021 19:48 22,5 C 22,2 C 18,9 C 60 % 1020,8 hPa 0,0 l/m 0 min 0 min 115 W/m 12,9 km/h (3 Bft) 95,74 %
20.07.2021 19:50 22,5 C 22,2 C 18,9 C 60 % 1020,9 hPa 0,0 l/m 0 min 0 min 76 W/m 6,4 km/h (2 Bft) 95,74 %
20.07.2021 19:52 22,4 C 21,7 C 18,9 C 61 % 1020,9 hPa 0,0 l/m 0 min 0 min 69 W/m 6,4 km/h (2 Bft) 95,74 %
20.07.2021 19:54 22,4 C 21,7 C 18,9 C 59 % 1020,9 hPa 0,0 l/m 0 min 0 min 68 W/m 9,7 km/h (2 Bft) 95,74 %
20.07.2021 19:56 22,4 C 21,7 C 18,9 C 60 % 1021,0 hPa 0,0 l/m 0 min 0 min 67 W/m 9,7 km/h (2 Bft) 95,74 %
20.07.2021 19:58 22,3 C 21,7 C 18,9 C 60 % 1021,0 hPa 0,0 l/m 0 min 0 min 65 W/m 16,1 km/h (3 Bft) 95,65 %
20.07.2021 20:00 22,3 C 21,1 C 18,9 C 59 % 1021,0 hPa 0,0 l/m 0 min 0 min 63 W/m 9,7 km/h (2 Bft) 95,74 %
20.07.2021 20:02 22,1 C 21,1 C 18,9 C 60 % 1021,1 hPa 0,0 l/m 0 min 0 min 62 W/m 9,7 km/h (2 Bft) 95,74 %
20.07.2021 20:04 22,1 C 21,1 C 18,4 C 60 % 1021,1 hPa 0,0 l/m 0 min 0 min 61 W/m 16,1 km/h (3 Bft) 95,74 %
20.07.2021 20:06 22,0 C 21,1 C 18,4 C 60 % 1021,1 hPa 0,0 l/m 0 min 0 min 59 W/m 12,9 km/h (3 Bft) 95,74 %
20.07.2021 20:08 21,9 C 21,1 C 18,4 C 60 % 1021,1 hPa 0,0 l/m 0 min 0 min 58 W/m 9,7 km/h (2 Bft) 97,87 %
20.07.2021 20:10 21,8 C 21,1 C 18,4 C 60 % 1021,1 hPa 0,0 l/m 0 min 0 min 56 W/m 25,7 km/h (4 Bft) 97,83 %
20.07.2021 20:12 21,6 C 21,1 C 18,4 C 61 % 1021,2 hPa 0,0 l/m 0 min 0 min 54 W/m 9,7 km/h (2 Bft) 95,74 %
20.07.2021 20:14 21,6 C 20,6 C 18,4 C 60 % 1021,2 hPa 0,0 l/m 0 min 0 min 53 W/m 12,9 km/h (3 Bft) 100,00 %
20.07.2021 20:16 21,5 C 20,6 C 18,4 C 61 % 1021,2 hPa 0,0 l/m 0 min 0 min 53 W/m 6,4 km/h (2 Bft) 100,00 %
20.07.2021 20:18 21,5 C 20,6 C 18,4 C 61 % 1021,2 hPa 0,0 l/m 0 min 0 min 51 W/m 9,7 km/h (2 Bft) 97,87 %
20.07.2021 20:20 21,5 C 20,6 C 18,4 C 61 % 1021,3 hPa 0,0 l/m 0 min 0 min 50 W/m 12,9 km/h (3 Bft) 97,87 %
20.07.2021 20:22 21,5 C 20,6 C 17,8 C 61 % 1021,3 hPa 0,0 l/m 0 min 0 min 49 W/m 16,1 km/h (3 Bft) 97,83 %
20.07.2021 20:24 21,5 C 20,6 C 17,8 C 61 % 1021,3 hPa 0,0 l/m 0 min 0 min 47 W/m 16,1 km/h (3 Bft) 97,87 %
20.07.2021 20:26 21,4 C 20,6 C 17,8 C 61 % 1021,3 hPa 0,0 l/m 0 min 0 min 46 W/m 9,7 km/h (2 Bft) 93,62 %
20.07.2021 20:28 21,4 C 20,6 C 17,8 C 61 % 1021,3 hPa 0,0 l/m 0 min 0 min 45 W/m 12,9 km/h (3 Bft) 97,87 %
20.07.2021 20:30 21,3 C 20,6 C 17,8 C 61 % 1021,4 hPa 0,0 l/m 0 min 0 min 44 W/m 12,9 km/h (3 Bft) 97,87 %
20.07.2021 20:32 21,3 C 20,6 C 17,8 C 61 % 1021,4 hPa 0,0 l/m 0 min 0 min 42 W/m 12,9 km/h (3 Bft) 97,87 %
20.07.2021 20:34 21,3 C 20,6 C 17,8 C 62 % 1021,3 hPa 0,0 l/m 0 min 0 min 41 W/m 9,7 km/h (2 Bft) 95,65 %
20.07.2021 20:36 21,2 C 20,0 C 17,8 C 61 % 1021,4 hPa 0,0 l/m 0 min 0 min 40 W/m 16,1 km/h (3 Bft) 95,74 %
20.07.2021 20:38 21,1 C 20,0 C 17,8 C 61 % 1021,4 hPa 0,0 l/m 0 min 0 min 39 W/m 6,4 km/h (2 Bft) 95,74 %
20.07.2021 20:40 21,1 C 20,0 C 17,8 C 62 % 1021,4 hPa 0,0 l/m 0 min 0 min 37 W/m 9,7 km/h (2 Bft) 97,87 %
20.07.2021 20:42 21,0 C 20,0 C 17,8 C 62 % 1021,4 hPa 0,0 l/m 0 min 0 min 36 W/m 9,7 km/h (2 Bft) 97,87 %
20.07.2021 20:44 21,0 C 20,0 C 17,3 C 62 % 1021,4 hPa 0,0 l/m 0 min 0 min 35 W/m 12,9 km/h (3 Bft) 95,74 %
20.07.2021 20:46 21,0 C 20,0 C 17,3 C 61 % 1021,5 hPa 0,0 l/m 0 min 0 min 33 W/m 12,9 km/h (3 Bft) 95,65 %
20.07.2021 20:48 20,9 C 20,0 C 17,3 C 61 % 1021,4 hPa 0,0 l/m 0 min 0 min 32 W/m 12,9 km/h (3 Bft) 97,87 %
20.07.2021 20:50 20,8 C 20,0 C 17,3 C 61 % 1021,4 hPa 0,0 l/m 0 min 0 min 32 W/m 9,7 km/h (2 Bft) 95,74 %
20.07.2021 20:52 20,8 C 20,0 C 17,3 C 62 % 1021,4 hPa 0,0 l/m 0 min 0 min 30 W/m 6,4 km/h (2 Bft) 97,87 %
20.07.2021 20:54 20,7 C 19,4 C 17,3 C 63 % 1021,4 hPa 0,0 l/m 0 min 0 min 28 W/m 6,4 km/h (2 Bft) 97,87 %
20.07.2021 20:56 20,6 C 19,4 C 17,3 C 63 % 1021,4 hPa 0,0 l/m 0 min 0 min 27 W/m 9,7 km/h (2 Bft) 95,74 %
20.07.2021 20:58 20,6 C 19,4 C 17,3 C 63 % 1021,4 hPa 0,0 l/m 0 min 0 min 26 W/m 9,7 km/h (2 Bft) 97,83 %
20.07.2021 21:00 20,6 C 19,4 C 17,3 C 62 % 1021,4 hPa 0,0 l/m 0 min 0 min 25 W/m 16,1 km/h (3 Bft) 97,87 %
20.07.2021 21:02 20,5 C 19,4 C 17,3 C 63 % 1021,4 hPa 0,0 l/m 0 min 0 min 24 W/m 6,4 km/h (2 Bft) 97,87 %
20.07.2021 21:04 20,5 C 19,4 C 17,3 C 64 % 1021,4 hPa 0,0 l/m 0 min 0 min 22 W/m 9,7 km/h (2 Bft) 97,87 %
20.07.2021 21:06 20,4 C 19,4 C 17,3 C 63 % 1021,4 hPa 0,0 l/m 0 min 0 min 21 W/m 9,7 km/h (2 Bft) 100,00 %
20.07.2021 21:08 20,4 C 19,4 C 17,3 C 62 % 1021,4 hPa 0,0 l/m 0 min 0 min 20 W/m 6,4 km/h (2 Bft) 100,00 %
20.07.2021 21:10 20,4 C 19,4 C 16,7 C 64 % 1021,4 hPa 0,0 l/m 0 min 0 min 18 W/m 6,4 km/h (2 Bft) 98,11 %
20.07.2021 21:12 20,3 C 19,4 C 16,7 C 64 % 1021,4 hPa 0,0 l/m 0 min 0 min 16 W/m 6,4 km/h (2 Bft) 100,00 %
20.07.2021 21:14 20,3 C 18,9 C 16,7 C 64 % 1021,4 hPa 0,0 l/m 0 min 0 min 15 W/m 3,2 km/h (1 Bft) 100,00 %
20.07.2021 21:16 20,2 C 18,9 C 16,7 C 64 % 1021,4 hPa 0,0 l/m 0 min 0 min 12 W/m 3,2 km/h (1 Bft) 100,00 %
20.07.2021 21:18 20,1 C 18,9 C 16,7 C 64 % 1021,4 hPa 0,0 l/m 0 min 0 min 11 W/m 6,4 km/h (2 Bft) 100,00 %
20.07.2021 21:20 20,1 C 18,9 C 16,7 C 65 % 1021,4 hPa 0,0 l/m 0 min 0 min 10 W/m 6,4 km/h (2 Bft) 100,00 %
20.07.2021 21:22 20,0 C 18,9 C 16,7 C 64 % 1021,4 hPa 0,0 l/m 0 min 0 min 9 W/m 6,4 km/h (2 Bft) 100,00 %
20.07.2021 21:24 20,0 C 18,9 C 16,7 C 65 % 1021,4 hPa 0,0 l/m 0 min 0 min 9 W/m 9,7 km/h (2 Bft) 97,87 %
20.07.2021 21:26 20,0 C 18,9 C 16,1 C 65 % 1021,5 hPa 0,0 l/m 0 min 0 min 7 W/m 6,4 km/h (2 Bft) 100,00 %
20.07.2021 21:28 19,9 C 18,9 C 16,1 C 65 % 1021,5 hPa 0,0 l/m 0 min 0 min 7 W/m 9,7 km/h (2 Bft) 100,00 %
20.07.2021 21:30 19,9 C 18,9 C 16,1 C 65 % 1021,5 hPa 0,0 l/m 0 min 0 min 6 W/m 6,4 km/h (2 Bft) 100,00 %
20.07.2021 21:32 19,8 C 18,9 C 16,1 C 65 % 1021,5 hPa 0,0 l/m 0 min 0 min 5 W/m 9,7 km/h (2 Bft) 97,92 %
20.07.2021 21:34 19,8 C 18,9 C 16,1 C 66 % 1021,5 hPa 0,0 l/m 0 min 0 min 5 W/m 3,2 km/h (1 Bft) 100,00 %
20.07.2021 21:36 19,8 C 18,3 C 16,1 C 66 % 1021,5 hPa 0,0 l/m 0 min 0 min 2 W/m 3,2 km/h (1 Bft) 97,87 %
20.07.2021 21:38 19,7 C 18,3 C 16,1 C 66 % 1021,5 hPa 0,0 l/m 0 min 0 min 0 W/m 3,2 km/h (1 Bft) 100,00 %
20.07.2021 21:40 19,6 C 18,3 C 16,1 C 66 % 1021,6 hPa 0,0 l/m 0 min 0 min 0 W/m 9,7 km/h (2 Bft) 100,00 %
20.07.2021 21:42 19,6 C 18,3 C 16,1 C 66 % 1021,5 hPa 0,0 l/m 0 min 0 min 0 W/m 3,2 km/h (1 Bft) 100,00 %
20.07.2021 21:44 19,6 C 18,3 C 16,1 C 66 % 1021,6 hPa 0,0 l/m 0 min 0 min 0 W/m 6,4 km/h (2 Bft) 100,00 %
20.07.2021 21:46 19,5 C 18,3 C 16,1 C 66 % 1021,6 hPa 0,0 l/m 0 min 0 min 0 W/m 3,2 km/h (1 Bft) 100,00 %
20.07.2021 21:48 19,5 C 18,3 C 16,1 C 66 % 1021,7 hPa 0,0 l/m 0 min 0 min 0 W/m 3,2 km/h (1 Bft) 100,00 %
20.07.2021 21:50 19,5 C 18,3 C 16,1 C 67 % 1021,7 hPa 0,0 l/m 0 min 0 min 0 W/m 3,2 km/h (1 Bft) 100,00 %
20.07.2021 21:52 19,5 C 18,3 C 16,1 C 67 % 1021,7 hPa 0,0 l/m 0 min 0 min 0 W/m 3,2 km/h (1 Bft) 97,87 %
20.07.2021 21:54 19,4 C 18,3 C 15,6 C 67 % 1021,7 hPa 0,0 l/m 0 min 0 min 0 W/m 3,2 km/h (1 Bft) 97,87 %
20.07.2021 21:56 19,4 C 18,3 C 15,6 C 67 % 1021,7 hPa 0,0 l/m 0 min 0 min 0 W/m 3,2 km/h (1 Bft) 100,00 %
20.07.2021 21:58 19,4 C 17,8 C 15,6 C 68 % 1021,7 hPa 0,0 l/m 0 min 0 min 0 W/m 3,2 km/h (1 Bft) 100,00 %
20.07.2021 22:00 19,3 C 17,8 C 15,6 C 68 % 1021,8 hPa 0,0 l/m 0 min 0 min 0 W/m 3,2 km/h (1 Bft) 100,00 %
20.07.2021 22:02 19,3 C 17,8 C 15,6 C 68 % 1021,7 hPa 0,0 l/m 0 min 0 min 0 W/m 3,2 km/h (1 Bft) 95,74 %
20.07.2021 22:04 19,2 C 17,8 C 15,6 C 67 % 1021,7 hPa 0,0 l/m 0 min 0 min 0 W/m 0,0 km/h (0 Bft) 97,87 %
20.07.2021 22:06 19,2 C 17,8 C 15,6 C 67 % 1021,7 hPa 0,0 l/m 0 min 0 min 0 W/m 0,0 km/h (0 Bft) 97,87 %
20.07.2021 22:08 19,1 C 17,8 C 15,6 C 68 % 1021,7 hPa 0,0 l/m 0 min 0 min 0 W/m 3,2 km/h (1 Bft) 97,87 %
20.07.2021 22:10 19,1 C 17,8 C 15,6 C 68 % 1021,8 hPa 0,0 l/m 0 min 0 min 0 W/m 0,0 km/h (0 Bft) 95,74 %
20.07.2021 22:12 19,1 C 17,8 C 15,6 C 69 % 1021,8 hPa 0,0 l/m 0 min 0 min 0 W/m 0,0 km/h (0 Bft) 97,87 %
20.07.2021 22:14 19,1 C 17,8 C 15,6 C 70 % 1021,7 hPa 0,0 l/m 0 min 0 min 0 W/m 3,2 km/h (1 Bft) 97,83 %
20.07.2021 22:16 19,0 C 17,8 C 15,6 C 70 % 1021,7 hPa 0,0 l/m 0 min 0 min 0 W/m 0,0 km/h (0 Bft) 95,74 %
20.07.2021 22:18 19,0 C 17,2 C 15,0 C 70 % 1021,7 hPa 0,0 l/m 0 min 0 min 0 W/m 3,2 km/h (1 Bft) 97,87 %
20.07.2021 22:20 19,0 C 17,2 C 15,0 C 70 % 1021,7 hPa 0,0 l/m 0 min 0 min 0 W/m 0,0 km/h (0 Bft) 95,74 %
20.07.2021 22:22 18,9 C 17,2 C 15,0 C 70 % 1021,8 hPa 0,0 l/m 0 min 0 min 0 W/m 0,0 km/h (0 Bft) 97,87 %
20.07.2021 22:24 18,9 C 17,2 C 15,0 C 70 % 1021,8 hPa 0,0 l/m 0 min 0 min 0 W/m 0,0 km/h (0 Bft) 97,87 %
20.07.2021 22:26 18,9 C 17,2 C 15,0 C 70 % 1021,7 hPa 0,0 l/m 0 min 0 min 0 W/m 3,2 km/h (1 Bft) 97,83 %
20.07.2021 22:28 18,9 C 17,2 C 15,0 C 71 % 1021,7 hPa 0,0 l/m 0 min 0 min 0 W/m 0,0 km/h (0 Bft) 98,00 %
20.07.2021 22:30 18,8 C 17,2 C 15,0 C 72 % 1021,8 hPa 0,0 l/m 0 min 0 min 0 W/m 3,2 km/h (1 Bft) 95,74 %
20.07.2021 22:32 18,8 C 17,2 C 15,0 C 72 % 1021,8 hPa 0,0 l/m 0 min 0 min 0 W/m 0,0 km/h (0 Bft) 97,87 %
20.07.2021 22:34 18,8 C 16,7 C 14,5 C 73 % 1021,8 hPa 0,0 l/m 0 min 0 min 0 W/m 0,0 km/h (0 Bft) 95,74 %
20.07.2021 22:36 18,8 C 16,7 C 14,5 C 73 % 1021,8 hPa 0,0 l/m 0 min 0 min 0 W/m 0,0 km/h (0 Bft) 97,83 %
20.07.2021 22:38 18,7 C 16,7 C 14,5 C 74 % 1021,8 hPa 0,0 l/m 0 min 0 min 0 W/m 0,0 km/h (0 Bft) 97,87 %
20.07.2021 22:40 18,6 C 16,7 C 14,5 C 74 % 1021,8 hPa 0,0 l/m 0 min 0 min 0 W/m 0,0 km/h (0 Bft) 97,87 %
20.07.2021 22:42 18,6 C 16,7 C 14,5 C 74 % 1021,8 hPa 0,0 l/m 0 min 0 min 0 W/m 0,0 km/h (0 Bft) 97,87 %
20.07.2021 22:44 18,5 C 16,7 C 14,5 C 74 % 1021,8 hPa 0,0 l/m 0 min 0 min 0 W/m 3,2 km/h (1 Bft) 97,87 %
20.07.2021 22:46 18,5 C 16,7 C 14,5 C 74 % 1021,8 hPa 0,0 l/m 0 min 0 min 0 W/m 3,2 km/h (1 Bft) 97,87 %
20.07.2021 22:48 18,4 C 16,7 C 14,5 C 74 % 1021,8 hPa 0,0 l/m 0 min 0 min 0 W/m 3,2 km/h (1 Bft) 100,00 %
20.07.2021 22:50 18,4 C 16,7 C 14,5 C 74 % 1021,8 hPa 0,0 l/m 0 min 0 min 0 W/m 0,0 km/h (0 Bft) 100,00 %
20.07.2021 22:52 18,3 C 16,7 C 14,5 C 74 % 1021,8 hPa 0,0 l/m 0 min 0 min 0 W/m 3,2 km/h (1 Bft) 97,87 %
20.07.2021 22:54 18,3 C 16,7 C 14,5 C 74 % 1021,8 hPa 0,0 l/m 0 min 0 min 0 W/m 3,2 km/h (1 Bft) 100,00 %
20.07.2021 22:56 18,1 C 16,7 C 14,5 C 73 % 1021,8 hPa 0,0 l/m 0 min 0 min 0 W/m 3,2 km/h (1 Bft) 97,87 %
20.07.2021 22:58 18,1 C 16,7 C 14,5 C 74 % 1021,8 hPa 0,0 l/m 0 min 0 min 0 W/m 3,2 km/h (1 Bft) 97,87 %
20.07.2021 23:00 18,1 C 16,7 C 14,5 C 74 % 1021,8 hPa 0,0 l/m 0 min 0 min 0 W/m 3,2 km/h (1 Bft) 97,87 %
20.07.2021 23:02 18,0 C 16,7 C 14,5 C 75 % 1021,8 hPa 0,0 l/m 0 min 0 min 0 W/m 0,0 km/h (0 Bft) 97,83 %
20.07.2021 23:04 18,0 C 16,7 C 14,5 C 75 % 1021,8 hPa 0,0 l/m 0 min 0 min 0 W/m 0,0 km/h (0 Bft) 97,87 %
20.07.2021 23:06 18,0 C 16,1 C 13,9 C 76 % 1021,8 hPa 0,0 l/m 0 min 0 min 0 W/m 0,0 km/h (0 Bft) 94,44 %
20.07.2021 23:08 17,9 C 16,1 C 13,9 C 76 % 1021,9 hPa 0,0 l/m 0 min 0 min 0 W/m 0,0 km/h (0 Bft) 100,00 %
20.07.2021 23:10 17,9 C 16,1 C 13,9 C 77 % 1021,9 hPa 0,0 l/m 0 min 0 min 0 W/m 0,0 km/h (0 Bft) 95,65 %
20.07.2021 23:12 17,8 C 16,1 C 13,9 C 77 % 1021,9 hPa 0,0 l/m 0 min 0 min 0 W/m 0,0 km/h (0 Bft) 97,87 %
20.07.2021 23:14 17,8 C 16,1 C 13,9 C 77 % 1021,9 hPa 0,0 l/m 0 min 0 min 0 W/m 0,0 km/h (0 Bft) 97,87 %
20.07.2021 23:16 17,7 C 16,1 C 13,9 C 77 % 1021,9 hPa 0,0 l/m 0 min 0 min 0 W/m 0,0 km/h (0 Bft) 97,87 %
20.07.2021 23:18 17,6 C 16,1 C 13,9 C 77 % 1021,9 hPa 0,0 l/m 0 min 0 min 0 W/m 0,0 km/h (0 Bft) 97,87 %
20.07.2021 23:20 17,6 C 16,1 C 13,9 C 78 % 1021,9 hPa 0,0 l/m 0 min 0 min 0 W/m 0,0 km/h (0 Bft) 95,74 %
20.07.2021 23:22 17,5 C 15,6 C 13,9 C 78 % 1021,9 hPa 0,0 l/m 0 min 0 min 0 W/m 0,0 km/h (0 Bft) 95,65 %
20.07.2021 23:24 17,5 C 15,6 C 13,9 C 79 % 1021,8 hPa 0,0 l/m 0 min 0 min 0 W/m 0,0 km/h (0 Bft) 95,74 %
20.07.2021 23:26 17,4 C 15,6 C 13,9 C 79 % 1021,8 hPa 0,0 l/m 0 min 0 min 0 W/m 0,0 km/h (0 Bft) 93,62 %
20.07.2021 23:28 17,4 C 15,6 C 13,9 C 79 % 1021,8 hPa 0,0 l/m 0 min 0 min 0 W/m 0,0 km/h (0 Bft) 95,74 %
20.07.2021 23:30 17,3 C 15,6 C 13,4 C 79 % 1021,9 hPa 0,0 l/m 0 min 0 min 0 W/m 0,0 km/h (0 Bft) 95,74 %
20.07.2021 23:32 17,3 C 15,6 C 13,4 C 79 % 1021,9 hPa 0,0 l/m 0 min 0 min 0 W/m 0,0 km/h (0 Bft) 95,74 %
20.07.2021 23:34 17,2 C 15,6 C 13,4 C 79 % 1021,9 hPa 0,0 l/m 0 min 0 min 0 W/m 0,0 km/h (0 Bft) 95,65 %
20.07.2021 23:36 17,1 C 15,6 C 13,4 C 80 % 1021,9 hPa 0,0 l/m 0 min 0 min 0 W/m 0,0 km/h (0 Bft) 93,62 %
20.07.2021 23:38 17,1 C 15,6 C 13,4 C 80 % 1021,9 hPa 0,0 l/m 0 min 0 min 0 W/m 0,0 km/h (0 Bft) 95,74 %
20.07.2021 23:40 17,1 C 15,0 C 13,4 C 80 % 1021,8 hPa 0,0 l/m 0 min 0 min 0 W/m 0,0 km/h (0 Bft) 93,62 %
20.07.2021 23:42 17,0 C 15,0 C 13,4 C 80 % 1021,9 hPa 0,0 l/m 0 min 0 min 0 W/m 0,0 km/h (0 Bft) 94,44 %
20.07.2021 23:44 16,9 C 15,0 C 13,4 C 80 % 1022,0 hPa 0,0 l/m 0 min 0 min 0 W/m 0,0 km/h (0 Bft) 93,62 %
20.07.2021 23:46 16,9 C 15,0 C 13,4 C 81 % 1022,0 hPa 0,0 l/m 0 min 0 min 0 W/m 0,0 km/h (0 Bft) 96,00 %
20.07.2021 23:48 16,9 C 15,0 C 13,4 C 81 % 1022,0 hPa 0,0 l/m 0 min 0 min 0 W/m 0,0 km/h (0 Bft) 95,65 %
20.07.2021 23:50 16,8 C 15,0 C 13,4 C 81 % 1022,0 hPa 0,0 l/m 0 min 0 min 0 W/m 0,0 km/h (0 Bft) 95,74 %
20.07.2021 23:52 16,8 C 15,0 C 13,4 C 81 % 1022,0 hPa 0,0 l/m 0 min 0 min 0 W/m 0,0 km/h (0 Bft) 95,74 %
20.07.2021 23:54 16,6 C 15,0 C 13,4 C 81 % 1022,0 hPa 0,0 l/m 0 min 0 min 0 W/m 0,0 km/h (0 Bft) 95,74 %
20.07.2021 23:56 16,6 C 15,0 C 13,4 C 81 % 1022,0 hPa 0,0 l/m 0 min 0 min 0 W/m 0,0 km/h (0 Bft) 95,74 %
20.07.2021 23:58 16,5 C 15,0 C 13,4 C 81 % 1022,1 hPa 0,0 l/m 0 min 0 min 0 W/m 0,0 km/h (0 Bft) 93,62 %
_ Min-Zeit 06:02 05:16 05:06 15:54 03:00 - - - - 02:20 05:50
Minimum _ 12,3 C 11,7 C 10,6 C 53 % 1020,6 hPa - - - - 0,0 km/h (0 Bft) 50,00 %
_ Max-Zeit 17:58 17:10 13:52 06:42 23:58 00:00 12:08 00:00 13:00 16:16 00:00
Maximum _ 24,7 C 31,1 C 31,7 C 93 % 1022,1 hPa 0,0 l/m 4 min 0 min 1060 W/m 25,7 km/h
N-NO (4 Bft)
100,00 %
Durchschnitt _ 18,8 C 19,8 C 16,9 C 72 % 1021,1 hPa #0,0 l/m #10:04 h #0 min. 438 W/m 7,9 km/h (2 Bft) 97,53 %
© 2021 W. Hausmann